<?xml version="1.0" encoding="UTF-8" standalone="no" ?>
<gpx xmlns="http://www.topografix.com/GPX/1/1" xmlns:xsi="http://www.w3.org/2001/XMLSchema-instance" xsi:schemaLocation="http://www.topografix.com/GPX/1/1 http://www.topografix.com/GPX/1/1/gpx.xsd" version="1.1" creator="VisuGPX - https://www.visugpx.com">
  <metadata>
    <name>Mornant Vert 151</name>
    <desc><![CDATA[

]]></desc>
  </metadata>
  <trk>
    <name><![CDATA[Mornant Vert 151]]></name>
    <trkseg>
      <trkpt lat="45.62245" lon="4.67496">
        <ele>370.73</ele>
        <time>2019-11-20T12:46:34Z</time>
      </trkpt>
      <trkpt lat="45.62248" lon="4.67493">
        <ele>370.73</ele>
        <time>2019-11-20T12:46:35Z</time>
      </trkpt>
      <trkpt lat="45.62267" lon="4.67477">
        <ele>370.73</ele>
        <time>2019-11-20T12:46:40Z</time>
      </trkpt>
      <trkpt lat="45.62278" lon="4.67466">
        <ele>370.24</ele>
        <time>2019-11-20T12:46:43Z</time>
      </trkpt>
      <trkpt lat="45.6231" lon="4.67433">
        <ele>369.28</ele>
        <time>2019-11-20T12:46:52Z</time>
      </trkpt>
      <trkpt lat="45.62313" lon="4.6743">
        <ele>369.28</ele>
        <time>2019-11-20T12:46:53Z</time>
      </trkpt>
      <trkpt lat="45.62382" lon="4.67372">
        <ele>368.32</ele>
        <time>2019-11-20T12:47:11Z</time>
      </trkpt>
      <trkpt lat="45.6245" lon="4.67341">
        <ele>366.88</ele>
        <time>2019-11-20T12:47:25Z</time>
      </trkpt>
      <trkpt lat="45.62456" lon="4.67341">
        <ele>366.88</ele>
        <time>2019-11-20T12:47:26Z</time>
      </trkpt>
      <trkpt lat="45.62461" lon="4.67342">
        <ele>366.88</ele>
        <time>2019-11-20T12:47:27Z</time>
      </trkpt>
      <trkpt lat="45.62465" lon="4.67345">
        <ele>366.4</ele>
        <time>2019-11-20T12:47:28Z</time>
      </trkpt>
      <trkpt lat="45.62469" lon="4.6735">
        <ele>366.4</ele>
        <time>2019-11-20T12:47:29Z</time>
      </trkpt>
      <trkpt lat="45.62473" lon="4.67354">
        <ele>366.4</ele>
        <time>2019-11-20T12:47:30Z</time>
      </trkpt>
      <trkpt lat="45.62478" lon="4.67355">
        <ele>366.4</ele>
        <time>2019-11-20T12:47:31Z</time>
      </trkpt>
      <trkpt lat="45.62482" lon="4.67353">
        <ele>366.4</ele>
        <time>2019-11-20T12:47:32Z</time>
      </trkpt>
      <trkpt lat="45.62485" lon="4.67349">
        <ele>365.92</ele>
        <time>2019-11-20T12:47:33Z</time>
      </trkpt>
      <trkpt lat="45.62487" lon="4.67345">
        <ele>365.44</ele>
        <time>2019-11-20T12:47:34Z</time>
      </trkpt>
      <trkpt lat="45.62488" lon="4.67342">
        <ele>365.44</ele>
        <time>2019-11-20T12:47:35Z</time>
      </trkpt>
      <trkpt lat="45.62487" lon="4.67341">
        <ele>365.44</ele>
        <time>2019-11-20T12:47:46Z</time>
      </trkpt>
      <trkpt lat="45.62489" lon="4.67333">
        <ele>365.44</ele>
        <time>2019-11-20T12:48:07Z</time>
      </trkpt>
      <trkpt lat="45.62492" lon="4.67332">
        <ele>365.44</ele>
        <time>2019-11-20T12:48:08Z</time>
      </trkpt>
      <trkpt lat="45.62495" lon="4.67332">
        <ele>365.44</ele>
        <time>2019-11-20T12:48:09Z</time>
      </trkpt>
      <trkpt lat="45.62499" lon="4.67333">
        <ele>365.44</ele>
        <time>2019-11-20T12:48:10Z</time>
      </trkpt>
      <trkpt lat="45.62503" lon="4.67334">
        <ele>365.44</ele>
        <time>2019-11-20T12:48:11Z</time>
      </trkpt>
      <trkpt lat="45.62507" lon="4.67335">
        <ele>365.44</ele>
        <time>2019-11-20T12:48:12Z</time>
      </trkpt>
      <trkpt lat="45.62511" lon="4.67335">
        <ele>364.96</ele>
        <time>2019-11-20T12:48:13Z</time>
      </trkpt>
      <trkpt lat="45.62517" lon="4.67335">
        <ele>364.96</ele>
        <time>2019-11-20T12:48:14Z</time>
      </trkpt>
      <trkpt lat="45.62527" lon="4.67335">
        <ele>364.96</ele>
        <time>2019-11-20T12:48:16Z</time>
      </trkpt>
      <trkpt lat="45.62532" lon="4.67336">
        <ele>364.48</ele>
        <time>2019-11-20T12:48:17Z</time>
      </trkpt>
      <trkpt lat="45.62605" lon="4.67353">
        <ele>363.52</ele>
        <time>2019-11-20T12:48:30Z</time>
      </trkpt>
      <trkpt lat="45.62652" lon="4.6736">
        <ele>362.55</ele>
        <time>2019-11-20T12:48:38Z</time>
      </trkpt>
      <trkpt lat="45.62661" lon="4.67359">
        <ele>362.07</ele>
        <time>2019-11-20T12:48:40Z</time>
      </trkpt>
      <trkpt lat="45.62663" lon="4.6736">
        <ele>362.07</ele>
        <time>2019-11-20T12:48:41Z</time>
      </trkpt>
      <trkpt lat="45.62666" lon="4.67362">
        <ele>362.07</ele>
        <time>2019-11-20T12:48:42Z</time>
      </trkpt>
      <trkpt lat="45.62669" lon="4.67364">
        <ele>362.07</ele>
        <time>2019-11-20T12:48:43Z</time>
      </trkpt>
      <trkpt lat="45.62673" lon="4.67365">
        <ele>361.59</ele>
        <time>2019-11-20T12:48:44Z</time>
      </trkpt>
      <trkpt lat="45.62682" lon="4.67371">
        <ele>361.59</ele>
        <time>2019-11-20T12:48:48Z</time>
      </trkpt>
      <trkpt lat="45.62679" lon="4.67371">
        <ele>361.59</ele>
        <time>2019-11-20T12:48:56Z</time>
      </trkpt>
      <trkpt lat="45.62679" lon="4.67369">
        <ele>361.59</ele>
        <time>2019-11-20T12:48:57Z</time>
      </trkpt>
      <trkpt lat="45.62679" lon="4.67368">
        <ele>361.59</ele>
        <time>2019-11-20T12:48:58Z</time>
      </trkpt>
      <trkpt lat="45.6268" lon="4.67366">
        <ele>361.59</ele>
        <time>2019-11-20T12:48:59Z</time>
      </trkpt>
      <trkpt lat="45.62681" lon="4.67364">
        <ele>361.59</ele>
        <time>2019-11-20T12:49:00Z</time>
      </trkpt>
      <trkpt lat="45.62681" lon="4.67363">
        <ele>361.59</ele>
        <time>2019-11-20T12:49:01Z</time>
      </trkpt>
      <trkpt lat="45.62682" lon="4.67361">
        <ele>361.59</ele>
        <time>2019-11-20T12:49:02Z</time>
      </trkpt>
      <trkpt lat="45.62682" lon="4.67359">
        <ele>362.07</ele>
        <time>2019-11-20T12:49:03Z</time>
      </trkpt>
      <trkpt lat="45.62682" lon="4.67358">
        <ele>362.07</ele>
        <time>2019-11-20T12:49:04Z</time>
      </trkpt>
      <trkpt lat="45.62681" lon="4.67354">
        <ele>361.59</ele>
        <time>2019-11-20T12:49:18Z</time>
      </trkpt>
      <trkpt lat="45.62682" lon="4.67355">
        <ele>361.59</ele>
        <time>2019-11-20T12:49:49Z</time>
      </trkpt>
      <trkpt lat="45.62682" lon="4.67353">
        <ele>361.59</ele>
        <time>2019-11-20T12:50:32Z</time>
      </trkpt>
      <trkpt lat="45.62681" lon="4.67353">
        <ele>361.59</ele>
        <time>2019-11-20T12:51:04Z</time>
      </trkpt>
      <trkpt lat="45.62681" lon="4.67354">
        <ele>361.59</ele>
        <time>2019-11-20T12:51:27Z</time>
      </trkpt>
      <trkpt lat="45.62682" lon="4.67354">
        <ele>361.59</ele>
        <time>2019-11-20T12:51:59Z</time>
      </trkpt>
      <trkpt lat="45.62682" lon="4.67355">
        <ele>361.11</ele>
        <time>2019-11-20T12:52:26Z</time>
      </trkpt>
      <trkpt lat="45.62682" lon="4.67356">
        <ele>361.11</ele>
        <time>2019-11-20T12:52:54Z</time>
      </trkpt>
      <trkpt lat="45.62681" lon="4.67354">
        <ele>361.11</ele>
        <time>2019-11-20T12:53:26Z</time>
      </trkpt>
      <trkpt lat="45.62679" lon="4.67355">
        <ele>361.59</ele>
        <time>2019-11-20T12:53:28Z</time>
      </trkpt>
      <trkpt lat="45.62678" lon="4.67356">
        <ele>361.59</ele>
        <time>2019-11-20T12:53:29Z</time>
      </trkpt>
      <trkpt lat="45.62677" lon="4.67358">
        <ele>362.07</ele>
        <time>2019-11-20T12:53:30Z</time>
      </trkpt>
      <trkpt lat="45.62677" lon="4.67361">
        <ele>361.59</ele>
        <time>2019-11-20T12:53:31Z</time>
      </trkpt>
      <trkpt lat="45.62677" lon="4.67364">
        <ele>361.59</ele>
        <time>2019-11-20T12:53:32Z</time>
      </trkpt>
      <trkpt lat="45.62679" lon="4.67374">
        <ele>360.63</ele>
        <time>2019-11-20T12:53:45Z</time>
      </trkpt>
      <trkpt lat="45.62678" lon="4.67373">
        <ele>360.63</ele>
        <time>2019-11-20T12:54:23Z</time>
      </trkpt>
      <trkpt lat="45.62679" lon="4.67377">
        <ele>360.63</ele>
        <time>2019-11-20T12:55:09Z</time>
      </trkpt>
      <trkpt lat="45.62679" lon="4.67374">
        <ele>360.63</ele>
        <time>2019-11-20T12:55:41Z</time>
      </trkpt>
      <trkpt lat="45.62681" lon="4.67372">
        <ele>361.59</ele>
        <time>2019-11-20T12:56:10Z</time>
      </trkpt>
      <trkpt lat="45.62684" lon="4.67371">
        <ele>361.11</ele>
        <time>2019-11-20T12:56:13Z</time>
      </trkpt>
      <trkpt lat="45.62685" lon="4.67371">
        <ele>361.11</ele>
        <time>2019-11-20T12:56:14Z</time>
      </trkpt>
      <trkpt lat="45.62688" lon="4.6737">
        <ele>361.11</ele>
        <time>2019-11-20T12:56:15Z</time>
      </trkpt>
      <trkpt lat="45.62733" lon="4.67378">
        <ele>361.11</ele>
        <time>2019-11-20T12:56:27Z</time>
      </trkpt>
      <trkpt lat="45.62746" lon="4.67381">
        <ele>361.59</ele>
        <time>2019-11-20T12:56:30Z</time>
      </trkpt>
      <trkpt lat="45.6275" lon="4.67383">
        <ele>361.59</ele>
        <time>2019-11-20T12:56:31Z</time>
      </trkpt>
      <trkpt lat="45.62754" lon="4.67385">
        <ele>361.59</ele>
        <time>2019-11-20T12:56:32Z</time>
      </trkpt>
      <trkpt lat="45.62757" lon="4.67387">
        <ele>361.11</ele>
        <time>2019-11-20T12:56:33Z</time>
      </trkpt>
      <trkpt lat="45.62759" lon="4.67388">
        <ele>361.11</ele>
        <time>2019-11-20T12:56:34Z</time>
      </trkpt>
      <trkpt lat="45.62762" lon="4.67389">
        <ele>361.11</ele>
        <time>2019-11-20T12:56:35Z</time>
      </trkpt>
      <trkpt lat="45.62764" lon="4.6739">
        <ele>361.11</ele>
        <time>2019-11-20T12:56:36Z</time>
      </trkpt>
      <trkpt lat="45.628" lon="4.67412">
        <ele>361.59</ele>
        <time>2019-11-20T12:56:49Z</time>
      </trkpt>
      <trkpt lat="45.62856" lon="4.67464">
        <ele>361.59</ele>
        <time>2019-11-20T12:57:05Z</time>
      </trkpt>
      <trkpt lat="45.62894" lon="4.67519">
        <ele>362.07</ele>
        <time>2019-11-20T12:57:20Z</time>
      </trkpt>
      <trkpt lat="45.6291" lon="4.67551">
        <ele>362.55</ele>
        <time>2019-11-20T12:57:32Z</time>
      </trkpt>
      <trkpt lat="45.62909" lon="4.67556">
        <ele>362.55</ele>
        <time>2019-11-20T12:57:42Z</time>
      </trkpt>
      <trkpt lat="45.6291" lon="4.67554">
        <ele>362.55</ele>
        <time>2019-11-20T12:58:11Z</time>
      </trkpt>
      <trkpt lat="45.6291" lon="4.67558">
        <ele>362.55</ele>
        <time>2019-11-20T12:58:54Z</time>
      </trkpt>
      <trkpt lat="45.62909" lon="4.67557">
        <ele>362.07</ele>
        <time>2019-11-20T12:59:19Z</time>
      </trkpt>
      <trkpt lat="45.62907" lon="4.6756">
        <ele>362.07</ele>
        <time>2019-11-20T13:00:01Z</time>
      </trkpt>
      <trkpt lat="45.62915" lon="4.67556">
        <ele>362.55</ele>
        <time>2019-11-20T13:00:50Z</time>
      </trkpt>
      <trkpt lat="45.62911" lon="4.67559">
        <ele>362.55</ele>
        <time>2019-11-20T13:01:30Z</time>
      </trkpt>
      <trkpt lat="45.62914" lon="4.67561">
        <ele>363.04</ele>
        <time>2019-11-20T13:01:52Z</time>
      </trkpt>
      <trkpt lat="45.62915" lon="4.67562">
        <ele>363.04</ele>
        <time>2019-11-20T13:01:53Z</time>
      </trkpt>
      <trkpt lat="45.62916" lon="4.67564">
        <ele>363.04</ele>
        <time>2019-11-20T13:01:54Z</time>
      </trkpt>
      <trkpt lat="45.62917" lon="4.67567">
        <ele>363.04</ele>
        <time>2019-11-20T13:01:55Z</time>
      </trkpt>
      <trkpt lat="45.62918" lon="4.67569">
        <ele>363.04</ele>
        <time>2019-11-20T13:01:56Z</time>
      </trkpt>
      <trkpt lat="45.62934" lon="4.67605">
        <ele>364</ele>
        <time>2019-11-20T13:02:08Z</time>
      </trkpt>
      <trkpt lat="45.62961" lon="4.67654">
        <ele>364.48</ele>
        <time>2019-11-20T13:02:22Z</time>
      </trkpt>
      <trkpt lat="45.63016" lon="4.67676">
        <ele>366.88</ele>
        <time>2019-11-20T13:02:40Z</time>
      </trkpt>
      <trkpt lat="45.63025" lon="4.67714">
        <ele>367.84</ele>
        <time>2019-11-20T13:02:50Z</time>
      </trkpt>
      <trkpt lat="45.63028" lon="4.67753">
        <ele>368.32</ele>
        <time>2019-11-20T13:02:59Z</time>
      </trkpt>
      <trkpt lat="45.63031" lon="4.67755">
        <ele>368.32</ele>
        <time>2019-11-20T13:03:00Z</time>
      </trkpt>
      <trkpt lat="45.63034" lon="4.67756">
        <ele>368.32</ele>
        <time>2019-11-20T13:03:01Z</time>
      </trkpt>
      <trkpt lat="45.63037" lon="4.67757">
        <ele>368.8</ele>
        <time>2019-11-20T13:03:02Z</time>
      </trkpt>
      <trkpt lat="45.6304" lon="4.67757">
        <ele>368.8</ele>
        <time>2019-11-20T13:03:03Z</time>
      </trkpt>
      <trkpt lat="45.63044" lon="4.67756">
        <ele>368.8</ele>
        <time>2019-11-20T13:03:04Z</time>
      </trkpt>
      <trkpt lat="45.631" lon="4.67753">
        <ele>370.73</ele>
        <time>2019-11-20T13:03:22Z</time>
      </trkpt>
      <trkpt lat="45.6314" lon="4.67754">
        <ele>373.61</ele>
        <time>2019-11-20T13:03:37Z</time>
      </trkpt>
      <trkpt lat="45.63169" lon="4.67758">
        <ele>376.97</ele>
        <time>2019-11-20T13:03:50Z</time>
      </trkpt>
      <trkpt lat="45.63171" lon="4.67758">
        <ele>377.45</ele>
        <time>2019-11-20T13:03:51Z</time>
      </trkpt>
      <trkpt lat="45.63172" lon="4.67759">
        <ele>377.45</ele>
        <time>2019-11-20T13:03:52Z</time>
      </trkpt>
      <trkpt lat="45.63173" lon="4.67761">
        <ele>377.45</ele>
        <time>2019-11-20T13:03:53Z</time>
      </trkpt>
      <trkpt lat="45.63173" lon="4.67766">
        <ele>377.45</ele>
        <time>2019-11-20T13:04:07Z</time>
      </trkpt>
      <trkpt lat="45.63173" lon="4.67767">
        <ele>377.45</ele>
        <time>2019-11-20T13:04:13Z</time>
      </trkpt>
      <trkpt lat="45.63172" lon="4.67768">
        <ele>377.45</ele>
        <time>2019-11-20T13:04:14Z</time>
      </trkpt>
      <trkpt lat="45.63172" lon="4.6777">
        <ele>377.45</ele>
        <time>2019-11-20T13:04:15Z</time>
      </trkpt>
      <trkpt lat="45.63171" lon="4.67772">
        <ele>377.45</ele>
        <time>2019-11-20T13:04:16Z</time>
      </trkpt>
      <trkpt lat="45.63171" lon="4.67775">
        <ele>377.45</ele>
        <time>2019-11-20T13:04:17Z</time>
      </trkpt>
      <trkpt lat="45.63171" lon="4.67778">
        <ele>377.45</ele>
        <time>2019-11-20T13:04:18Z</time>
      </trkpt>
      <trkpt lat="45.63172" lon="4.67781">
        <ele>377.94</ele>
        <time>2019-11-20T13:04:19Z</time>
      </trkpt>
      <trkpt lat="45.63173" lon="4.67785">
        <ele>377.94</ele>
        <time>2019-11-20T13:04:20Z</time>
      </trkpt>
      <trkpt lat="45.63191" lon="4.67841">
        <ele>379.38</ele>
        <time>2019-11-20T13:04:37Z</time>
      </trkpt>
      <trkpt lat="45.63212" lon="4.6789">
        <ele>380.82</ele>
        <time>2019-11-20T13:04:52Z</time>
      </trkpt>
      <trkpt lat="45.63237" lon="4.67955">
        <ele>380.34</ele>
        <time>2019-11-20T13:05:08Z</time>
      </trkpt>
      <trkpt lat="45.63253" lon="4.68016">
        <ele>379.86</ele>
        <time>2019-11-20T13:05:20Z</time>
      </trkpt>
      <trkpt lat="45.63271" lon="4.68107">
        <ele>377.94</ele>
        <time>2019-11-20T13:05:36Z</time>
      </trkpt>
      <trkpt lat="45.63282" lon="4.68186">
        <ele>375.05</ele>
        <time>2019-11-20T13:05:49Z</time>
      </trkpt>
      <trkpt lat="45.63283" lon="4.68213">
        <ele>373.61</ele>
        <time>2019-11-20T13:05:59Z</time>
      </trkpt>
      <trkpt lat="45.6328" lon="4.68217">
        <ele>373.13</ele>
        <time>2019-11-20T13:06:13Z</time>
      </trkpt>
      <trkpt lat="45.63284" lon="4.68214">
        <ele>373.13</ele>
        <time>2019-11-20T13:06:34Z</time>
      </trkpt>
      <trkpt lat="45.63285" lon="4.68213">
        <ele>373.13</ele>
        <time>2019-11-20T13:07:12Z</time>
      </trkpt>
      <trkpt lat="45.63289" lon="4.68214">
        <ele>373.13</ele>
        <time>2019-11-20T13:07:38Z</time>
      </trkpt>
      <trkpt lat="45.63285" lon="4.68213">
        <ele>372.65</ele>
        <time>2019-11-20T13:08:05Z</time>
      </trkpt>
      <trkpt lat="45.63284" lon="4.68211">
        <ele>372.65</ele>
        <time>2019-11-20T13:08:38Z</time>
      </trkpt>
      <trkpt lat="45.63284" lon="4.68211">
        <ele>372.17</ele>
        <time>2019-11-20T13:09:11Z</time>
      </trkpt>
      <trkpt lat="45.63284" lon="4.68211">
        <ele>372.65</ele>
        <time>2019-11-20T13:09:50Z</time>
      </trkpt>
      <trkpt lat="45.63284" lon="4.68214">
        <ele>372.65</ele>
        <time>2019-11-20T13:10:34Z</time>
      </trkpt>
      <trkpt lat="45.63284" lon="4.68215">
        <ele>373.13</ele>
        <time>2019-11-20T13:11:08Z</time>
      </trkpt>
      <trkpt lat="45.63284" lon="4.68216">
        <ele>373.61</ele>
        <time>2019-11-20T13:11:13Z</time>
      </trkpt>
      <trkpt lat="45.63286" lon="4.68218">
        <ele>373.61</ele>
        <time>2019-11-20T13:11:14Z</time>
      </trkpt>
      <trkpt lat="45.63287" lon="4.68219">
        <ele>374.09</ele>
        <time>2019-11-20T13:11:15Z</time>
      </trkpt>
      <trkpt lat="45.63289" lon="4.6822">
        <ele>373.61</ele>
        <time>2019-11-20T13:11:16Z</time>
      </trkpt>
      <trkpt lat="45.63291" lon="4.68221">
        <ele>373.61</ele>
        <time>2019-11-20T13:11:17Z</time>
      </trkpt>
      <trkpt lat="45.63324" lon="4.68249">
        <ele>374.09</ele>
        <time>2019-11-20T13:11:30Z</time>
      </trkpt>
      <trkpt lat="45.63356" lon="4.68287">
        <ele>374.57</ele>
        <time>2019-11-20T13:11:43Z</time>
      </trkpt>
      <trkpt lat="45.63383" lon="4.68334">
        <ele>375.53</ele>
        <time>2019-11-20T13:11:57Z</time>
      </trkpt>
      <trkpt lat="45.63404" lon="4.68393">
        <ele>376.01</ele>
        <time>2019-11-20T13:12:11Z</time>
      </trkpt>
      <trkpt lat="45.63438" lon="4.68464">
        <ele>377.45</ele>
        <time>2019-11-20T13:12:29Z</time>
      </trkpt>
      <trkpt lat="45.63483" lon="4.6852">
        <ele>378.9</ele>
        <time>2019-11-20T13:12:47Z</time>
      </trkpt>
      <trkpt lat="45.63531" lon="4.68555">
        <ele>380.34</ele>
        <time>2019-11-20T13:13:05Z</time>
      </trkpt>
      <trkpt lat="45.63572" lon="4.68571">
        <ele>383.22</ele>
        <time>2019-11-20T13:13:20Z</time>
      </trkpt>
      <trkpt lat="45.63601" lon="4.68583">
        <ele>385.15</ele>
        <time>2019-11-20T13:13:32Z</time>
      </trkpt>
      <trkpt lat="45.63601" lon="4.68585">
        <ele>385.15</ele>
        <time>2019-11-20T13:13:33Z</time>
      </trkpt>
      <trkpt lat="45.636" lon="4.68588">
        <ele>385.63</ele>
        <time>2019-11-20T13:13:34Z</time>
      </trkpt>
      <trkpt lat="45.636" lon="4.68591">
        <ele>385.15</ele>
        <time>2019-11-20T13:13:35Z</time>
      </trkpt>
      <trkpt lat="45.63602" lon="4.68591">
        <ele>384.66</ele>
        <time>2019-11-20T13:13:45Z</time>
      </trkpt>
      <trkpt lat="45.63601" lon="4.68592">
        <ele>384.66</ele>
        <time>2019-11-20T13:14:16Z</time>
      </trkpt>
      <trkpt lat="45.636" lon="4.68592">
        <ele>384.66</ele>
        <time>2019-11-20T13:15:00Z</time>
      </trkpt>
      <trkpt lat="45.63601" lon="4.68593">
        <ele>384.66</ele>
        <time>2019-11-20T13:15:41Z</time>
      </trkpt>
      <trkpt lat="45.63602" lon="4.68592">
        <ele>384.66</ele>
        <time>2019-11-20T13:16:21Z</time>
      </trkpt>
      <trkpt lat="45.63601" lon="4.68592">
        <ele>384.66</ele>
        <time>2019-11-20T13:16:51Z</time>
      </trkpt>
      <trkpt lat="45.636" lon="4.68592">
        <ele>384.66</ele>
        <time>2019-11-20T13:17:33Z</time>
      </trkpt>
      <trkpt lat="45.63595" lon="4.68592">
        <ele>384.66</ele>
        <time>2019-11-20T13:18:05Z</time>
      </trkpt>
      <trkpt lat="45.63602" lon="4.68592">
        <ele>385.15</ele>
        <time>2019-11-20T13:18:38Z</time>
      </trkpt>
      <trkpt lat="45.63604" lon="4.6859">
        <ele>385.15</ele>
        <time>2019-11-20T13:18:42Z</time>
      </trkpt>
      <trkpt lat="45.63604" lon="4.68589">
        <ele>385.15</ele>
        <time>2019-11-20T13:18:43Z</time>
      </trkpt>
      <trkpt lat="45.63605" lon="4.68588">
        <ele>385.15</ele>
        <time>2019-11-20T13:18:44Z</time>
      </trkpt>
      <trkpt lat="45.63607" lon="4.68587">
        <ele>385.15</ele>
        <time>2019-11-20T13:18:45Z</time>
      </trkpt>
      <trkpt lat="45.63609" lon="4.68587">
        <ele>385.63</ele>
        <time>2019-11-20T13:18:46Z</time>
      </trkpt>
      <trkpt lat="45.63612" lon="4.68586">
        <ele>385.63</ele>
        <time>2019-11-20T13:18:47Z</time>
      </trkpt>
      <trkpt lat="45.63614" lon="4.68587">
        <ele>385.63</ele>
        <time>2019-11-20T13:18:48Z</time>
      </trkpt>
      <trkpt lat="45.63662" lon="4.68577">
        <ele>387.07</ele>
        <time>2019-11-20T13:19:04Z</time>
      </trkpt>
      <trkpt lat="45.63698" lon="4.68568">
        <ele>388.03</ele>
        <time>2019-11-20T13:19:17Z</time>
      </trkpt>
      <trkpt lat="45.63708" lon="4.68565">
        <ele>388.51</ele>
        <time>2019-11-20T13:19:29Z</time>
      </trkpt>
      <trkpt lat="45.63711" lon="4.68565">
        <ele>388.99</ele>
        <time>2019-11-20T13:20:08Z</time>
      </trkpt>
      <trkpt lat="45.6371" lon="4.68562">
        <ele>388.51</ele>
        <time>2019-11-20T13:20:46Z</time>
      </trkpt>
      <trkpt lat="45.6371" lon="4.68566">
        <ele>388.51</ele>
        <time>2019-11-20T13:21:23Z</time>
      </trkpt>
      <trkpt lat="45.63711" lon="4.68565">
        <ele>388.99</ele>
        <time>2019-11-20T13:21:53Z</time>
      </trkpt>
      <trkpt lat="45.63709" lon="4.68567">
        <ele>388.99</ele>
        <time>2019-11-20T13:22:36Z</time>
      </trkpt>
      <trkpt lat="45.63709" lon="4.68564">
        <ele>388.99</ele>
        <time>2019-11-20T13:23:02Z</time>
      </trkpt>
      <trkpt lat="45.63712" lon="4.68564">
        <ele>388.99</ele>
        <time>2019-11-20T13:23:42Z</time>
      </trkpt>
      <trkpt lat="45.63709" lon="4.68565">
        <ele>388.99</ele>
        <time>2019-11-20T13:24:10Z</time>
      </trkpt>
      <trkpt lat="45.63713" lon="4.68567">
        <ele>388.99</ele>
        <time>2019-11-20T13:24:45Z</time>
      </trkpt>
      <trkpt lat="45.6371" lon="4.68564">
        <ele>388.51</ele>
        <time>2019-11-20T13:25:20Z</time>
      </trkpt>
      <trkpt lat="45.63708" lon="4.68566">
        <ele>388.51</ele>
        <time>2019-11-20T13:25:53Z</time>
      </trkpt>
      <trkpt lat="45.6371" lon="4.68562">
        <ele>388.51</ele>
        <time>2019-11-20T13:26:38Z</time>
      </trkpt>
      <trkpt lat="45.63711" lon="4.68562">
        <ele>388.99</ele>
        <time>2019-11-20T13:27:21Z</time>
      </trkpt>
      <trkpt lat="45.63711" lon="4.68563">
        <ele>388.99</ele>
        <time>2019-11-20T13:28:04Z</time>
      </trkpt>
      <trkpt lat="45.63708" lon="4.68564">
        <ele>389.47</ele>
        <time>2019-11-20T13:28:42Z</time>
      </trkpt>
      <trkpt lat="45.63708" lon="4.68565">
        <ele>389.47</ele>
        <time>2019-11-20T13:29:16Z</time>
      </trkpt>
      <trkpt lat="45.63711" lon="4.68568">
        <ele>389.47</ele>
        <time>2019-11-20T13:29:24Z</time>
      </trkpt>
      <trkpt lat="45.63713" lon="4.6857">
        <ele>389.47</ele>
        <time>2019-11-20T13:29:25Z</time>
      </trkpt>
      <trkpt lat="45.63715" lon="4.68571">
        <ele>389.47</ele>
        <time>2019-11-20T13:29:26Z</time>
      </trkpt>
      <trkpt lat="45.63717" lon="4.68571">
        <ele>389.95</ele>
        <time>2019-11-20T13:29:27Z</time>
      </trkpt>
      <trkpt lat="45.6372" lon="4.68571">
        <ele>389.95</ele>
        <time>2019-11-20T13:29:28Z</time>
      </trkpt>
      <trkpt lat="45.63723" lon="4.6857">
        <ele>389.95</ele>
        <time>2019-11-20T13:29:29Z</time>
      </trkpt>
      <trkpt lat="45.63762" lon="4.68559">
        <ele>390.43</ele>
        <time>2019-11-20T13:29:40Z</time>
      </trkpt>
      <trkpt lat="45.6377" lon="4.68558">
        <ele>389.95</ele>
        <time>2019-11-20T13:29:42Z</time>
      </trkpt>
      <trkpt lat="45.63802" lon="4.68554">
        <ele>388.51</ele>
        <time>2019-11-20T13:29:53Z</time>
      </trkpt>
      <trkpt lat="45.63803" lon="4.68553">
        <ele>388.51</ele>
        <time>2019-11-20T13:30:12Z</time>
      </trkpt>
      <trkpt lat="45.638" lon="4.68547">
        <ele>388.99</ele>
        <time>2019-11-20T13:30:51Z</time>
      </trkpt>
      <trkpt lat="45.63801" lon="4.6854">
        <ele>388.99</ele>
        <time>2019-11-20T13:31:31Z</time>
      </trkpt>
      <trkpt lat="45.63802" lon="4.68539">
        <ele>388.99</ele>
        <time>2019-11-20T13:31:32Z</time>
      </trkpt>
      <trkpt lat="45.63804" lon="4.6854">
        <ele>388.99</ele>
        <time>2019-11-20T13:31:33Z</time>
      </trkpt>
      <trkpt lat="45.63807" lon="4.68542">
        <ele>388.99</ele>
        <time>2019-11-20T13:31:34Z</time>
      </trkpt>
      <trkpt lat="45.6381" lon="4.68544">
        <ele>388.99</ele>
        <time>2019-11-20T13:31:35Z</time>
      </trkpt>
      <trkpt lat="45.63851" lon="4.68544">
        <ele>388.99</ele>
        <time>2019-11-20T13:31:47Z</time>
      </trkpt>
      <trkpt lat="45.63893" lon="4.68542">
        <ele>388.99</ele>
        <time>2019-11-20T13:32:02Z</time>
      </trkpt>
      <trkpt lat="45.63944" lon="4.68537">
        <ele>389.47</ele>
        <time>2019-11-20T13:32:17Z</time>
      </trkpt>
      <trkpt lat="45.63986" lon="4.68544">
        <ele>389.95</ele>
        <time>2019-11-20T13:32:32Z</time>
      </trkpt>
      <trkpt lat="45.63997" lon="4.68544">
        <ele>389.95</ele>
        <time>2019-11-20T13:32:45Z</time>
      </trkpt>
      <trkpt lat="45.63996" lon="4.68544">
        <ele>389.95</ele>
        <time>2019-11-20T13:32:59Z</time>
      </trkpt>
      <trkpt lat="45.63997" lon="4.68546">
        <ele>389.95</ele>
        <time>2019-11-20T13:33:33Z</time>
      </trkpt>
      <trkpt lat="45.63996" lon="4.68543">
        <ele>390.43</ele>
        <time>2019-11-20T13:34:17Z</time>
      </trkpt>
      <trkpt lat="45.63995" lon="4.68545">
        <ele>390.43</ele>
        <time>2019-11-20T13:34:53Z</time>
      </trkpt>
      <trkpt lat="45.63998" lon="4.68546">
        <ele>390.43</ele>
        <time>2019-11-20T13:35:26Z</time>
      </trkpt>
      <trkpt lat="45.63997" lon="4.68545">
        <ele>390.43</ele>
        <time>2019-11-20T13:36:00Z</time>
      </trkpt>
      <trkpt lat="45.63997" lon="4.68545">
        <ele>390.43</ele>
        <time>2019-11-20T13:36:01Z</time>
      </trkpt>
      <trkpt lat="45.63999" lon="4.68546">
        <ele>390.43</ele>
        <time>2019-11-20T13:36:02Z</time>
      </trkpt>
      <trkpt lat="45.64001" lon="4.68546">
        <ele>390.43</ele>
        <time>2019-11-20T13:36:03Z</time>
      </trkpt>
      <trkpt lat="45.64002" lon="4.68548">
        <ele>389.95</ele>
        <time>2019-11-20T13:36:04Z</time>
      </trkpt>
      <trkpt lat="45.64003" lon="4.68551">
        <ele>389.95</ele>
        <time>2019-11-20T13:36:05Z</time>
      </trkpt>
      <trkpt lat="45.64003" lon="4.68554">
        <ele>389.95</ele>
        <time>2019-11-20T13:36:06Z</time>
      </trkpt>
      <trkpt lat="45.63998" lon="4.68604">
        <ele>388.51</ele>
        <time>2019-11-20T13:36:19Z</time>
      </trkpt>
      <trkpt lat="45.63995" lon="4.68605">
        <ele>388.51</ele>
        <time>2019-11-20T13:36:36Z</time>
      </trkpt>
      <trkpt lat="45.63996" lon="4.68604">
        <ele>388.03</ele>
        <time>2019-11-20T13:37:16Z</time>
      </trkpt>
      <trkpt lat="45.63996" lon="4.68605">
        <ele>388.03</ele>
        <time>2019-11-20T13:37:40Z</time>
      </trkpt>
      <trkpt lat="45.63995" lon="4.68604">
        <ele>388.51</ele>
        <time>2019-11-20T13:38:20Z</time>
      </trkpt>
      <trkpt lat="45.63994" lon="4.68604">
        <ele>388.51</ele>
        <time>2019-11-20T13:39:02Z</time>
      </trkpt>
      <trkpt lat="45.63998" lon="4.68605">
        <ele>388.51</ele>
        <time>2019-11-20T13:39:48Z</time>
      </trkpt>
      <trkpt lat="45.64001" lon="4.68606">
        <ele>388.51</ele>
        <time>2019-11-20T13:40:16Z</time>
      </trkpt>
      <trkpt lat="45.63999" lon="4.68606">
        <ele>388.51</ele>
        <time>2019-11-20T13:40:35Z</time>
      </trkpt>
      <trkpt lat="45.63999" lon="4.68608">
        <ele>388.51</ele>
        <time>2019-11-20T13:40:36Z</time>
      </trkpt>
      <trkpt lat="45.63999" lon="4.6861">
        <ele>388.51</ele>
        <time>2019-11-20T13:40:37Z</time>
      </trkpt>
      <trkpt lat="45.63998" lon="4.68613">
        <ele>388.51</ele>
        <time>2019-11-20T13:40:38Z</time>
      </trkpt>
      <trkpt lat="45.63997" lon="4.68616">
        <ele>388.51</ele>
        <time>2019-11-20T13:40:39Z</time>
      </trkpt>
      <trkpt lat="45.63995" lon="4.68619">
        <ele>388.51</ele>
        <time>2019-11-20T13:40:40Z</time>
      </trkpt>
      <trkpt lat="45.63993" lon="4.68622">
        <ele>388.51</ele>
        <time>2019-11-20T13:40:41Z</time>
      </trkpt>
      <trkpt lat="45.63991" lon="4.68626">
        <ele>388.51</ele>
        <time>2019-11-20T13:40:42Z</time>
      </trkpt>
      <trkpt lat="45.63988" lon="4.68629">
        <ele>388.51</ele>
        <time>2019-11-20T13:40:43Z</time>
      </trkpt>
      <trkpt lat="45.63982" lon="4.68638">
        <ele>388.51</ele>
        <time>2019-11-20T13:40:45Z</time>
      </trkpt>
      <trkpt lat="45.6398" lon="4.68643">
        <ele>388.03</ele>
        <time>2019-11-20T13:40:46Z</time>
      </trkpt>
      <trkpt lat="45.63978" lon="4.6865">
        <ele>388.03</ele>
        <time>2019-11-20T13:40:47Z</time>
      </trkpt>
      <trkpt lat="45.63977" lon="4.68656">
        <ele>387.55</ele>
        <time>2019-11-20T13:40:48Z</time>
      </trkpt>
      <trkpt lat="45.63976" lon="4.68663">
        <ele>387.55</ele>
        <time>2019-11-20T13:40:49Z</time>
      </trkpt>
      <trkpt lat="45.63976" lon="4.6867">
        <ele>387.55</ele>
        <time>2019-11-20T13:40:50Z</time>
      </trkpt>
      <trkpt lat="45.63976" lon="4.68677">
        <ele>387.55</ele>
        <time>2019-11-20T13:40:51Z</time>
      </trkpt>
      <trkpt lat="45.63988" lon="4.68781">
        <ele>386.59</ele>
        <time>2019-11-20T13:41:06Z</time>
      </trkpt>
      <trkpt lat="45.64005" lon="4.68831">
        <ele>388.51</ele>
        <time>2019-11-20T13:41:18Z</time>
      </trkpt>
      <trkpt lat="45.64014" lon="4.68889">
        <ele>390.43</ele>
        <time>2019-11-20T13:41:33Z</time>
      </trkpt>
      <trkpt lat="45.64024" lon="4.6895">
        <ele>392.84</ele>
        <time>2019-11-20T13:41:50Z</time>
      </trkpt>
      <trkpt lat="45.64036" lon="4.69003">
        <ele>394.76</ele>
        <time>2019-11-20T13:42:05Z</time>
      </trkpt>
      <trkpt lat="45.64039" lon="4.69032">
        <ele>395.72</ele>
        <time>2019-11-20T13:42:13Z</time>
      </trkpt>
      <trkpt lat="45.6404" lon="4.69034">
        <ele>395.72</ele>
        <time>2019-11-20T13:42:14Z</time>
      </trkpt>
      <trkpt lat="45.64062" lon="4.69076">
        <ele>397.16</ele>
        <time>2019-11-20T13:42:29Z</time>
      </trkpt>
      <trkpt lat="45.64066" lon="4.69082">
        <ele>397.64</ele>
        <time>2019-11-20T13:42:39Z</time>
      </trkpt>
      <trkpt lat="45.64073" lon="4.69094">
        <ele>398.12</ele>
        <time>2019-11-20T13:42:52Z</time>
      </trkpt>
      <trkpt lat="45.64102" lon="4.69134">
        <ele>398.6</ele>
        <time>2019-11-20T13:43:08Z</time>
      </trkpt>
      <trkpt lat="45.64143" lon="4.69184">
        <ele>399.57</ele>
        <time>2019-11-20T13:43:25Z</time>
      </trkpt>
      <trkpt lat="45.64196" lon="4.69216">
        <ele>401.49</ele>
        <time>2019-11-20T13:43:43Z</time>
      </trkpt>
      <trkpt lat="45.64236" lon="4.69237">
        <ele>402.45</ele>
        <time>2019-11-20T13:44:00Z</time>
      </trkpt>
      <trkpt lat="45.64242" lon="4.69243">
        <ele>402.45</ele>
        <time>2019-11-20T13:44:13Z</time>
      </trkpt>
      <trkpt lat="45.64239" lon="4.69244">
        <ele>402.45</ele>
        <time>2019-11-20T13:44:52Z</time>
      </trkpt>
      <trkpt lat="45.6424" lon="4.69246">
        <ele>402.93</ele>
        <time>2019-11-20T13:45:41Z</time>
      </trkpt>
      <trkpt lat="45.64241" lon="4.69244">
        <ele>402.93</ele>
        <time>2019-11-20T13:46:22Z</time>
      </trkpt>
      <trkpt lat="45.6424" lon="4.69244">
        <ele>402.93</ele>
        <time>2019-11-20T13:46:55Z</time>
      </trkpt>
      <trkpt lat="45.64243" lon="4.69243">
        <ele>402.93</ele>
        <time>2019-11-20T13:47:28Z</time>
      </trkpt>
      <trkpt lat="45.64244" lon="4.69242">
        <ele>402.45</ele>
        <time>2019-11-20T13:47:29Z</time>
      </trkpt>
      <trkpt lat="45.64245" lon="4.69239">
        <ele>402.93</ele>
        <time>2019-11-20T13:47:30Z</time>
      </trkpt>
      <trkpt lat="45.64246" lon="4.69236">
        <ele>402.45</ele>
        <time>2019-11-20T13:47:31Z</time>
      </trkpt>
      <trkpt lat="45.64246" lon="4.69231">
        <ele>402.45</ele>
        <time>2019-11-20T13:47:32Z</time>
      </trkpt>
      <trkpt lat="45.64248" lon="4.69206">
        <ele>401.01</ele>
        <time>2019-11-20T13:47:39Z</time>
      </trkpt>
      <trkpt lat="45.6425" lon="4.69204">
        <ele>401.49</ele>
        <time>2019-11-20T13:47:40Z</time>
      </trkpt>
      <trkpt lat="45.64252" lon="4.69204">
        <ele>401.49</ele>
        <time>2019-11-20T13:47:41Z</time>
      </trkpt>
      <trkpt lat="45.64254" lon="4.69205">
        <ele>401.49</ele>
        <time>2019-11-20T13:47:42Z</time>
      </trkpt>
      <trkpt lat="45.64256" lon="4.69206">
        <ele>401.97</ele>
        <time>2019-11-20T13:47:43Z</time>
      </trkpt>
      <trkpt lat="45.64259" lon="4.69208">
        <ele>401.97</ele>
        <time>2019-11-20T13:47:44Z</time>
      </trkpt>
      <trkpt lat="45.64294" lon="4.69235">
        <ele>405.33</ele>
        <time>2019-11-20T13:47:57Z</time>
      </trkpt>
      <trkpt lat="45.64332" lon="4.69281">
        <ele>408.22</ele>
        <time>2019-11-20T13:48:12Z</time>
      </trkpt>
      <trkpt lat="45.64344" lon="4.69306">
        <ele>409.18</ele>
        <time>2019-11-20T13:48:25Z</time>
      </trkpt>
      <trkpt lat="45.64347" lon="4.69305">
        <ele>409.18</ele>
        <time>2019-11-20T13:48:53Z</time>
      </trkpt>
      <trkpt lat="45.64344" lon="4.69303">
        <ele>409.18</ele>
        <time>2019-11-20T13:49:32Z</time>
      </trkpt>
      <trkpt lat="45.64347" lon="4.69306">
        <ele>409.18</ele>
        <time>2019-11-20T13:50:14Z</time>
      </trkpt>
      <trkpt lat="45.64349" lon="4.69307">
        <ele>409.18</ele>
        <time>2019-11-20T13:50:20Z</time>
      </trkpt>
      <trkpt lat="45.64351" lon="4.69308">
        <ele>409.18</ele>
        <time>2019-11-20T13:50:21Z</time>
      </trkpt>
      <trkpt lat="45.64352" lon="4.6931">
        <ele>409.18</ele>
        <time>2019-11-20T13:50:22Z</time>
      </trkpt>
      <trkpt lat="45.64354" lon="4.69313">
        <ele>409.66</ele>
        <time>2019-11-20T13:50:23Z</time>
      </trkpt>
      <trkpt lat="45.64356" lon="4.69317">
        <ele>409.18</ele>
        <time>2019-11-20T13:50:24Z</time>
      </trkpt>
      <trkpt lat="45.64357" lon="4.69321">
        <ele>409.18</ele>
        <time>2019-11-20T13:50:25Z</time>
      </trkpt>
      <trkpt lat="45.64359" lon="4.69326">
        <ele>409.66</ele>
        <time>2019-11-20T13:50:26Z</time>
      </trkpt>
      <trkpt lat="45.64371" lon="4.6936">
        <ele>410.14</ele>
        <time>2019-11-20T13:50:33Z</time>
      </trkpt>
      <trkpt lat="45.64373" lon="4.69365">
        <ele>410.14</ele>
        <time>2019-11-20T13:50:34Z</time>
      </trkpt>
      <trkpt lat="45.64406" lon="4.69429">
        <ele>409.18</ele>
        <time>2019-11-20T13:50:47Z</time>
      </trkpt>
      <trkpt lat="45.64423" lon="4.6945">
        <ele>409.18</ele>
        <time>2019-11-20T13:50:51Z</time>
      </trkpt>
      <trkpt lat="45.64427" lon="4.69453">
        <ele>408.7</ele>
        <time>2019-11-20T13:50:52Z</time>
      </trkpt>
      <trkpt lat="45.6446" lon="4.69487">
        <ele>408.7</ele>
        <time>2019-11-20T13:51:04Z</time>
      </trkpt>
      <trkpt lat="45.64466" lon="4.6949">
        <ele>408.7</ele>
        <time>2019-11-20T13:51:16Z</time>
      </trkpt>
      <trkpt lat="45.64466" lon="4.69487">
        <ele>408.7</ele>
        <time>2019-11-20T13:51:33Z</time>
      </trkpt>
      <trkpt lat="45.64467" lon="4.69491">
        <ele>408.7</ele>
        <time>2019-11-20T13:51:44Z</time>
      </trkpt>
      <trkpt lat="45.64468" lon="4.69492">
        <ele>408.7</ele>
        <time>2019-11-20T13:52:00Z</time>
      </trkpt>
      <trkpt lat="45.64468" lon="4.69491">
        <ele>408.7</ele>
        <time>2019-11-20T13:52:26Z</time>
      </trkpt>
      <trkpt lat="45.64469" lon="4.69491">
        <ele>408.7</ele>
        <time>2019-11-20T13:52:55Z</time>
      </trkpt>
      <trkpt lat="45.64467" lon="4.69491">
        <ele>408.7</ele>
        <time>2019-11-20T13:53:26Z</time>
      </trkpt>
      <trkpt lat="45.6447" lon="4.69495">
        <ele>408.7</ele>
        <time>2019-11-20T13:54:03Z</time>
      </trkpt>
      <trkpt lat="45.64501" lon="4.69529">
        <ele>408.7</ele>
        <time>2019-11-20T13:54:15Z</time>
      </trkpt>
      <trkpt lat="45.64501" lon="4.69535">
        <ele>408.7</ele>
        <time>2019-11-20T13:54:16Z</time>
      </trkpt>
      <trkpt lat="45.64503" lon="4.69601">
        <ele>406.77</ele>
        <time>2019-11-20T13:54:28Z</time>
      </trkpt>
      <trkpt lat="45.64498" lon="4.69683">
        <ele>406.29</ele>
        <time>2019-11-20T13:54:41Z</time>
      </trkpt>
      <trkpt lat="45.645" lon="4.69735">
        <ele>406.77</ele>
        <time>2019-11-20T13:54:53Z</time>
      </trkpt>
      <trkpt lat="45.64505" lon="4.69797">
        <ele>403.41</ele>
        <time>2019-11-20T13:55:06Z</time>
      </trkpt>
      <trkpt lat="45.64494" lon="4.69846">
        <ele>401.01</ele>
        <time>2019-11-20T13:55:17Z</time>
      </trkpt>
      <trkpt lat="45.64494" lon="4.69849">
        <ele>400.53</ele>
        <time>2019-11-20T13:55:24Z</time>
      </trkpt>
      <trkpt lat="45.64493" lon="4.69849">
        <ele>400.05</ele>
        <time>2019-11-20T13:55:34Z</time>
      </trkpt>
      <trkpt lat="45.64489" lon="4.69851">
        <ele>400.05</ele>
        <time>2019-11-20T13:56:13Z</time>
      </trkpt>
      <trkpt lat="45.64492" lon="4.69854">
        <ele>400.53</ele>
        <time>2019-11-20T13:56:53Z</time>
      </trkpt>
      <trkpt lat="45.64494" lon="4.69851">
        <ele>400.53</ele>
        <time>2019-11-20T13:57:26Z</time>
      </trkpt>
      <trkpt lat="45.64491" lon="4.69851">
        <ele>400.53</ele>
        <time>2019-11-20T13:58:02Z</time>
      </trkpt>
      <trkpt lat="45.64494" lon="4.69851">
        <ele>401.01</ele>
        <time>2019-11-20T13:58:42Z</time>
      </trkpt>
      <trkpt lat="45.6449" lon="4.69855">
        <ele>401.49</ele>
        <time>2019-11-20T13:59:21Z</time>
      </trkpt>
      <trkpt lat="45.64485" lon="4.69865">
        <ele>401.97</ele>
        <time>2019-11-20T13:59:51Z</time>
      </trkpt>
      <trkpt lat="45.64487" lon="4.69868">
        <ele>401.97</ele>
        <time>2019-11-20T14:00:21Z</time>
      </trkpt>
      <trkpt lat="45.64491" lon="4.69867">
        <ele>402.45</ele>
        <time>2019-11-20T14:00:45Z</time>
      </trkpt>
      <trkpt lat="45.64496" lon="4.69862">
        <ele>403.89</ele>
        <time>2019-11-20T14:01:13Z</time>
      </trkpt>
      <trkpt lat="45.64493" lon="4.69875">
        <ele>402.93</ele>
        <time>2019-11-20T14:01:26Z</time>
      </trkpt>
      <trkpt lat="45.64461" lon="4.6995">
        <ele>402.45</ele>
        <time>2019-11-20T14:01:43Z</time>
      </trkpt>
      <trkpt lat="45.64439" lon="4.69996">
        <ele>401.97</ele>
        <time>2019-11-20T14:01:54Z</time>
      </trkpt>
      <trkpt lat="45.64415" lon="4.70029">
        <ele>401.49</ele>
        <time>2019-11-20T14:02:05Z</time>
      </trkpt>
      <trkpt lat="45.64405" lon="4.70042">
        <ele>400.05</ele>
        <time>2019-11-20T14:02:08Z</time>
      </trkpt>
      <trkpt lat="45.64401" lon="4.70049">
        <ele>398.6</ele>
        <time>2019-11-20T14:02:09Z</time>
      </trkpt>
      <trkpt lat="45.64398" lon="4.70057">
        <ele>398.6</ele>
        <time>2019-11-20T14:02:10Z</time>
      </trkpt>
      <trkpt lat="45.64388" lon="4.70084">
        <ele>395.72</ele>
        <time>2019-11-20T14:02:13Z</time>
      </trkpt>
      <trkpt lat="45.64382" lon="4.70101">
        <ele>394.76</ele>
        <time>2019-11-20T14:02:15Z</time>
      </trkpt>
      <trkpt lat="45.6437" lon="4.7014">
        <ele>392.36</ele>
        <time>2019-11-20T14:02:20Z</time>
      </trkpt>
      <trkpt lat="45.64355" lon="4.7017">
        <ele>389.47</ele>
        <time>2019-11-20T14:02:24Z</time>
      </trkpt>
      <trkpt lat="45.64351" lon="4.70176">
        <ele>388.99</ele>
        <time>2019-11-20T14:02:25Z</time>
      </trkpt>
      <trkpt lat="45.64348" lon="4.70183">
        <ele>388.99</ele>
        <time>2019-11-20T14:02:26Z</time>
      </trkpt>
      <trkpt lat="45.64329" lon="4.70226">
        <ele>386.11</ele>
        <time>2019-11-20T14:02:33Z</time>
      </trkpt>
      <trkpt lat="45.64328" lon="4.7023">
        <ele>386.11</ele>
        <time>2019-11-20T14:02:34Z</time>
      </trkpt>
      <trkpt lat="45.64328" lon="4.70233">
        <ele>385.63</ele>
        <time>2019-11-20T14:02:35Z</time>
      </trkpt>
      <trkpt lat="45.64328" lon="4.70236">
        <ele>385.63</ele>
        <time>2019-11-20T14:02:36Z</time>
      </trkpt>
      <trkpt lat="45.64328" lon="4.7024">
        <ele>385.63</ele>
        <time>2019-11-20T14:02:37Z</time>
      </trkpt>
      <trkpt lat="45.64329" lon="4.70243">
        <ele>386.11</ele>
        <time>2019-11-20T14:02:38Z</time>
      </trkpt>
      <trkpt lat="45.64332" lon="4.70247">
        <ele>385.63</ele>
        <time>2019-11-20T14:02:39Z</time>
      </trkpt>
      <trkpt lat="45.64335" lon="4.70249">
        <ele>385.63</ele>
        <time>2019-11-20T14:02:40Z</time>
      </trkpt>
      <trkpt lat="45.64338" lon="4.70252">
        <ele>385.63</ele>
        <time>2019-11-20T14:02:41Z</time>
      </trkpt>
      <trkpt lat="45.64341" lon="4.70254">
        <ele>385.63</ele>
        <time>2019-11-20T14:02:42Z</time>
      </trkpt>
      <trkpt lat="45.64344" lon="4.70257">
        <ele>385.63</ele>
        <time>2019-11-20T14:02:43Z</time>
      </trkpt>
      <trkpt lat="45.6439" lon="4.70302">
        <ele>384.18</ele>
        <time>2019-11-20T14:02:56Z</time>
      </trkpt>
      <trkpt lat="45.64415" lon="4.70332">
        <ele>381.78</ele>
        <time>2019-11-20T14:03:02Z</time>
      </trkpt>
      <trkpt lat="45.64419" lon="4.70338">
        <ele>381.78</ele>
        <time>2019-11-20T14:03:03Z</time>
      </trkpt>
      <trkpt lat="45.6445" lon="4.70379">
        <ele>378.42</ele>
        <time>2019-11-20T14:03:10Z</time>
      </trkpt>
      <trkpt lat="45.64458" lon="4.7039">
        <ele>377.45</ele>
        <time>2019-11-20T14:03:12Z</time>
      </trkpt>
      <trkpt lat="45.64466" lon="4.70405">
        <ele>375.53</ele>
        <time>2019-11-20T14:03:19Z</time>
      </trkpt>
      <trkpt lat="45.64463" lon="4.70404">
        <ele>374.57</ele>
        <time>2019-11-20T14:03:36Z</time>
      </trkpt>
      <trkpt lat="45.64464" lon="4.70403">
        <ele>374.57</ele>
        <time>2019-11-20T14:04:00Z</time>
      </trkpt>
      <trkpt lat="45.64465" lon="4.70402">
        <ele>374.57</ele>
        <time>2019-11-20T14:04:41Z</time>
      </trkpt>
      <trkpt lat="45.64466" lon="4.70402">
        <ele>374.09</ele>
        <time>2019-11-20T14:05:18Z</time>
      </trkpt>
      <trkpt lat="45.64465" lon="4.70402">
        <ele>373.61</ele>
        <time>2019-11-20T14:05:50Z</time>
      </trkpt>
      <trkpt lat="45.64465" lon="4.70402">
        <ele>373.61</ele>
        <time>2019-11-20T14:06:20Z</time>
      </trkpt>
      <trkpt lat="45.64466" lon="4.70402">
        <ele>373.13</ele>
        <time>2019-11-20T14:06:51Z</time>
      </trkpt>
      <trkpt lat="45.64465" lon="4.70403">
        <ele>372.65</ele>
        <time>2019-11-20T14:07:28Z</time>
      </trkpt>
      <trkpt lat="45.64465" lon="4.70402">
        <ele>372.17</ele>
        <time>2019-11-20T14:08:02Z</time>
      </trkpt>
      <trkpt lat="45.64465" lon="4.70402">
        <ele>372.17</ele>
        <time>2019-11-20T14:08:34Z</time>
      </trkpt>
      <trkpt lat="45.64465" lon="4.70402">
        <ele>372.17</ele>
        <time>2019-11-20T14:09:01Z</time>
      </trkpt>
      <trkpt lat="45.64466" lon="4.70401">
        <ele>372.65</ele>
        <time>2019-11-20T14:09:04Z</time>
      </trkpt>
      <trkpt lat="45.64468" lon="4.70405">
        <ele>372.65</ele>
        <time>2019-11-20T14:09:06Z</time>
      </trkpt>
      <trkpt lat="45.6447" lon="4.70408">
        <ele>372.17</ele>
        <time>2019-11-20T14:09:07Z</time>
      </trkpt>
      <trkpt lat="45.64472" lon="4.7041">
        <ele>372.17</ele>
        <time>2019-11-20T14:09:08Z</time>
      </trkpt>
      <trkpt lat="45.64475" lon="4.70414">
        <ele>371.69</ele>
        <time>2019-11-20T14:09:09Z</time>
      </trkpt>
      <trkpt lat="45.64478" lon="4.70419">
        <ele>371.21</ele>
        <time>2019-11-20T14:09:10Z</time>
      </trkpt>
      <trkpt lat="45.64484" lon="4.7043">
        <ele>369.28</ele>
        <time>2019-11-20T14:09:12Z</time>
      </trkpt>
      <trkpt lat="45.64487" lon="4.70437">
        <ele>369.76</ele>
        <time>2019-11-20T14:09:13Z</time>
      </trkpt>
      <trkpt lat="45.64491" lon="4.70444">
        <ele>369.28</ele>
        <time>2019-11-20T14:09:14Z</time>
      </trkpt>
      <trkpt lat="45.64507" lon="4.70471">
        <ele>366.4</ele>
        <time>2019-11-20T14:09:18Z</time>
      </trkpt>
      <trkpt lat="45.64516" lon="4.70488">
        <ele>364.48</ele>
        <time>2019-11-20T14:09:20Z</time>
      </trkpt>
      <trkpt lat="45.6453" lon="4.70514">
        <ele>361.59</ele>
        <time>2019-11-20T14:09:23Z</time>
      </trkpt>
      <trkpt lat="45.64553" lon="4.70553">
        <ele>358.23</ele>
        <time>2019-11-20T14:09:28Z</time>
      </trkpt>
      <trkpt lat="45.64558" lon="4.70562">
        <ele>358.23</ele>
        <time>2019-11-20T14:09:29Z</time>
      </trkpt>
      <trkpt lat="45.6457" lon="4.70578">
        <ele>356.79</ele>
        <time>2019-11-20T14:09:31Z</time>
      </trkpt>
      <trkpt lat="45.64609" lon="4.70633">
        <ele>352.94</ele>
        <time>2019-11-20T14:09:38Z</time>
      </trkpt>
      <trkpt lat="45.6462" lon="4.70648">
        <ele>351.5</ele>
        <time>2019-11-20T14:09:40Z</time>
      </trkpt>
      <trkpt lat="45.64641" lon="4.70676">
        <ele>348.13</ele>
        <time>2019-11-20T14:09:44Z</time>
      </trkpt>
      <trkpt lat="45.64647" lon="4.70683">
        <ele>348.13</ele>
        <time>2019-11-20T14:09:45Z</time>
      </trkpt>
      <trkpt lat="45.64678" lon="4.70719">
        <ele>345.25</ele>
        <time>2019-11-20T14:09:50Z</time>
      </trkpt>
      <trkpt lat="45.64684" lon="4.70727">
        <ele>344.77</ele>
        <time>2019-11-20T14:09:51Z</time>
      </trkpt>
      <trkpt lat="45.64698" lon="4.70746">
        <ele>344.29</ele>
        <time>2019-11-20T14:09:54Z</time>
      </trkpt>
      <trkpt lat="45.647" lon="4.70751">
        <ele>343.33</ele>
        <time>2019-11-20T14:09:55Z</time>
      </trkpt>
      <trkpt lat="45.64701" lon="4.70757">
        <ele>343.33</ele>
        <time>2019-11-20T14:09:56Z</time>
      </trkpt>
      <trkpt lat="45.64698" lon="4.70762">
        <ele>343.33</ele>
        <time>2019-11-20T14:09:57Z</time>
      </trkpt>
      <trkpt lat="45.64694" lon="4.70767">
        <ele>343.33</ele>
        <time>2019-11-20T14:09:58Z</time>
      </trkpt>
      <trkpt lat="45.64665" lon="4.70818">
        <ele>339.96</ele>
        <time>2019-11-20T14:10:05Z</time>
      </trkpt>
      <trkpt lat="45.64609" lon="4.70901">
        <ele>336.6</ele>
        <time>2019-11-20T14:10:17Z</time>
      </trkpt>
      <trkpt lat="45.64552" lon="4.70996">
        <ele>334.2</ele>
        <time>2019-11-20T14:10:31Z</time>
      </trkpt>
      <trkpt lat="45.64502" lon="4.71075">
        <ele>331.31</ele>
        <time>2019-11-20T14:10:44Z</time>
      </trkpt>
      <trkpt lat="45.64496" lon="4.71086">
        <ele>331.31</ele>
        <time>2019-11-20T14:10:51Z</time>
      </trkpt>
      <trkpt lat="45.64492" lon="4.71094">
        <ele>330.83</ele>
        <time>2019-11-20T14:11:15Z</time>
      </trkpt>
      <trkpt lat="45.64476" lon="4.71118">
        <ele>330.35</ele>
        <time>2019-11-20T14:11:28Z</time>
      </trkpt>
      <trkpt lat="45.64452" lon="4.71142">
        <ele>330.35</ele>
        <time>2019-11-20T14:11:40Z</time>
      </trkpt>
      <trkpt lat="45.64418" lon="4.71164">
        <ele>330.35</ele>
        <time>2019-11-20T14:11:53Z</time>
      </trkpt>
      <trkpt lat="45.64398" lon="4.71152">
        <ele>330.83</ele>
        <time>2019-11-20T14:12:06Z</time>
      </trkpt>
      <trkpt lat="45.64398" lon="4.71151">
        <ele>330.35</ele>
        <time>2019-11-20T14:12:18Z</time>
      </trkpt>
      <trkpt lat="45.64398" lon="4.71151">
        <ele>330.35</ele>
        <time>2019-11-20T14:12:55Z</time>
      </trkpt>
      <trkpt lat="45.644" lon="4.71151">
        <ele>330.35</ele>
        <time>2019-11-20T14:13:35Z</time>
      </trkpt>
      <trkpt lat="45.644" lon="4.71151">
        <ele>330.35</ele>
        <time>2019-11-20T14:14:12Z</time>
      </trkpt>
      <trkpt lat="45.64399" lon="4.71152">
        <ele>330.83</ele>
        <time>2019-11-20T14:14:44Z</time>
      </trkpt>
      <trkpt lat="45.64398" lon="4.71152">
        <ele>330.35</ele>
        <time>2019-11-20T14:15:27Z</time>
      </trkpt>
      <trkpt lat="45.64396" lon="4.7115">
        <ele>330.35</ele>
        <time>2019-11-20T14:16:16Z</time>
      </trkpt>
      <trkpt lat="45.64399" lon="4.71151">
        <ele>330.35</ele>
        <time>2019-11-20T14:17:03Z</time>
      </trkpt>
      <trkpt lat="45.64399" lon="4.71151">
        <ele>330.35</ele>
        <time>2019-11-20T14:17:41Z</time>
      </trkpt>
      <trkpt lat="45.64399" lon="4.7115">
        <ele>330.83</ele>
        <time>2019-11-20T14:18:12Z</time>
      </trkpt>
      <trkpt lat="45.64398" lon="4.71147">
        <ele>330.83</ele>
        <time>2019-11-20T14:18:13Z</time>
      </trkpt>
      <trkpt lat="45.64397" lon="4.71145">
        <ele>330.83</ele>
        <time>2019-11-20T14:18:14Z</time>
      </trkpt>
      <trkpt lat="45.64396" lon="4.71143">
        <ele>330.83</ele>
        <time>2019-11-20T14:18:15Z</time>
      </trkpt>
      <trkpt lat="45.64395" lon="4.71142">
        <ele>331.31</ele>
        <time>2019-11-20T14:18:16Z</time>
      </trkpt>
      <trkpt lat="45.64366" lon="4.71118">
        <ele>333.23</ele>
        <time>2019-11-20T14:18:26Z</time>
      </trkpt>
      <trkpt lat="45.64321" lon="4.71109">
        <ele>335.64</ele>
        <time>2019-11-20T14:18:41Z</time>
      </trkpt>
      <trkpt lat="45.64288" lon="4.71101">
        <ele>337.56</ele>
        <time>2019-11-20T14:18:55Z</time>
      </trkpt>
      <trkpt lat="45.64242" lon="4.71105">
        <ele>338.52</ele>
        <time>2019-11-20T14:19:10Z</time>
      </trkpt>
      <trkpt lat="45.6417" lon="4.71089">
        <ele>339.48</ele>
        <time>2019-11-20T14:19:30Z</time>
      </trkpt>
      <trkpt lat="45.64126" lon="4.71081">
        <ele>343.33</ele>
        <time>2019-11-20T14:19:43Z</time>
      </trkpt>
      <trkpt lat="45.64079" lon="4.71066">
        <ele>342.37</ele>
        <time>2019-11-20T14:19:58Z</time>
      </trkpt>
      <trkpt lat="45.64009" lon="4.71036">
        <ele>340.92</ele>
        <time>2019-11-20T14:20:13Z</time>
      </trkpt>
      <trkpt lat="45.63986" lon="4.71022">
        <ele>340.92</ele>
        <time>2019-11-20T14:20:25Z</time>
      </trkpt>
      <trkpt lat="45.63986" lon="4.71021">
        <ele>340.92</ele>
        <time>2019-11-20T14:20:45Z</time>
      </trkpt>
      <trkpt lat="45.63985" lon="4.71019">
        <ele>340.92</ele>
        <time>2019-11-20T14:20:46Z</time>
      </trkpt>
      <trkpt lat="45.63985" lon="4.71016">
        <ele>340.92</ele>
        <time>2019-11-20T14:20:47Z</time>
      </trkpt>
      <trkpt lat="45.63986" lon="4.71014">
        <ele>341.41</ele>
        <time>2019-11-20T14:20:48Z</time>
      </trkpt>
      <trkpt lat="45.63987" lon="4.71011">
        <ele>341.41</ele>
        <time>2019-11-20T14:20:49Z</time>
      </trkpt>
      <trkpt lat="45.63988" lon="4.71009">
        <ele>341.41</ele>
        <time>2019-11-20T14:20:50Z</time>
      </trkpt>
      <trkpt lat="45.64005" lon="4.70978">
        <ele>342.37</ele>
        <time>2019-11-20T14:20:59Z</time>
      </trkpt>
      <trkpt lat="45.64015" lon="4.70965">
        <ele>343.33</ele>
        <time>2019-11-20T14:21:02Z</time>
      </trkpt>
      <trkpt lat="45.6404" lon="4.70932">
        <ele>346.69</ele>
        <time>2019-11-20T14:21:12Z</time>
      </trkpt>
      <trkpt lat="45.64062" lon="4.70898">
        <ele>350.06</ele>
        <time>2019-11-20T14:21:22Z</time>
      </trkpt>
      <trkpt lat="45.64098" lon="4.70857">
        <ele>351.98</ele>
        <time>2019-11-20T14:21:37Z</time>
      </trkpt>
      <trkpt lat="45.64105" lon="4.70845">
        <ele>352.94</ele>
        <time>2019-11-20T14:21:42Z</time>
      </trkpt>
      <trkpt lat="45.64104" lon="4.70839">
        <ele>352.46</ele>
        <time>2019-11-20T14:21:50Z</time>
      </trkpt>
      <trkpt lat="45.64103" lon="4.70837">
        <ele>352.46</ele>
        <time>2019-11-20T14:22:21Z</time>
      </trkpt>
      <trkpt lat="45.64102" lon="4.70837">
        <ele>352.46</ele>
        <time>2019-11-20T14:22:53Z</time>
      </trkpt>
      <trkpt lat="45.64102" lon="4.70836">
        <ele>352.94</ele>
        <time>2019-11-20T14:23:19Z</time>
      </trkpt>
      <trkpt lat="45.64103" lon="4.70836">
        <ele>353.42</ele>
        <time>2019-11-20T14:23:47Z</time>
      </trkpt>
      <trkpt lat="45.64099" lon="4.70836">
        <ele>352.94</ele>
        <time>2019-11-20T14:23:59Z</time>
      </trkpt>
      <trkpt lat="45.64098" lon="4.70836">
        <ele>352.94</ele>
        <time>2019-11-20T14:24:00Z</time>
      </trkpt>
      <trkpt lat="45.64094" lon="4.7083">
        <ele>353.42</ele>
        <time>2019-11-20T14:24:07Z</time>
      </trkpt>
      <trkpt lat="45.64093" lon="4.70828">
        <ele>353.42</ele>
        <time>2019-11-20T14:24:08Z</time>
      </trkpt>
      <trkpt lat="45.64067" lon="4.70795">
        <ele>353.9</ele>
        <time>2019-11-20T14:24:24Z</time>
      </trkpt>
      <trkpt lat="45.64028" lon="4.70751">
        <ele>352.94</ele>
        <time>2019-11-20T14:24:37Z</time>
      </trkpt>
      <trkpt lat="45.6399" lon="4.70703">
        <ele>352.94</ele>
        <time>2019-11-20T14:24:52Z</time>
      </trkpt>
      <trkpt lat="45.63972" lon="4.70681">
        <ele>352.46</ele>
        <time>2019-11-20T14:25:04Z</time>
      </trkpt>
      <trkpt lat="45.63972" lon="4.7068">
        <ele>351.98</ele>
        <time>2019-11-20T14:25:16Z</time>
      </trkpt>
      <trkpt lat="45.63972" lon="4.70677">
        <ele>351.98</ele>
        <time>2019-11-20T14:25:18Z</time>
      </trkpt>
      <trkpt lat="45.63971" lon="4.70676">
        <ele>351.98</ele>
        <time>2019-11-20T14:25:19Z</time>
      </trkpt>
      <trkpt lat="45.6397" lon="4.70675">
        <ele>351.98</ele>
        <time>2019-11-20T14:25:20Z</time>
      </trkpt>
      <trkpt lat="45.63968" lon="4.70675">
        <ele>351.98</ele>
        <time>2019-11-20T14:25:21Z</time>
      </trkpt>
      <trkpt lat="45.63966" lon="4.70676">
        <ele>351.98</ele>
        <time>2019-11-20T14:25:22Z</time>
      </trkpt>
      <trkpt lat="45.63964" lon="4.70677">
        <ele>352.46</ele>
        <time>2019-11-20T14:25:23Z</time>
      </trkpt>
      <trkpt lat="45.63924" lon="4.70707">
        <ele>351.02</ele>
        <time>2019-11-20T14:25:38Z</time>
      </trkpt>
      <trkpt lat="45.63913" lon="4.70706">
        <ele>350.06</ele>
        <time>2019-11-20T14:25:46Z</time>
      </trkpt>
      <trkpt lat="45.63913" lon="4.70702">
        <ele>350.06</ele>
        <time>2019-11-20T14:26:16Z</time>
      </trkpt>
      <trkpt lat="45.6391" lon="4.70702">
        <ele>350.54</ele>
        <time>2019-11-20T14:26:52Z</time>
      </trkpt>
      <trkpt lat="45.63911" lon="4.70702">
        <ele>350.54</ele>
        <time>2019-11-20T14:27:14Z</time>
      </trkpt>
      <trkpt lat="45.63913" lon="4.70705">
        <ele>350.54</ele>
        <time>2019-11-20T14:27:15Z</time>
      </trkpt>
      <trkpt lat="45.63915" lon="4.7071">
        <ele>350.54</ele>
        <time>2019-11-20T14:27:19Z</time>
      </trkpt>
      <trkpt lat="45.63914" lon="4.70713">
        <ele>350.54</ele>
        <time>2019-11-20T14:27:20Z</time>
      </trkpt>
      <trkpt lat="45.63914" lon="4.70716">
        <ele>350.06</ele>
        <time>2019-11-20T14:27:21Z</time>
      </trkpt>
      <trkpt lat="45.63912" lon="4.70719">
        <ele>350.06</ele>
        <time>2019-11-20T14:27:22Z</time>
      </trkpt>
      <trkpt lat="45.63909" lon="4.70722">
        <ele>350.54</ele>
        <time>2019-11-20T14:27:23Z</time>
      </trkpt>
      <trkpt lat="45.63907" lon="4.70726">
        <ele>349.58</ele>
        <time>2019-11-20T14:27:24Z</time>
      </trkpt>
      <trkpt lat="45.63864" lon="4.70797">
        <ele>347.17</ele>
        <time>2019-11-20T14:27:39Z</time>
      </trkpt>
      <trkpt lat="45.63855" lon="4.70816">
        <ele>347.17</ele>
        <time>2019-11-20T14:27:42Z</time>
      </trkpt>
      <trkpt lat="45.63806" lon="4.70892">
        <ele>347.17</ele>
        <time>2019-11-20T14:27:56Z</time>
      </trkpt>
      <trkpt lat="45.63803" lon="4.70896">
        <ele>347.17</ele>
        <time>2019-11-20T14:27:57Z</time>
      </trkpt>
      <trkpt lat="45.638" lon="4.709">
        <ele>347.17</ele>
        <time>2019-11-20T14:27:58Z</time>
      </trkpt>
      <trkpt lat="45.63765" lon="4.70953">
        <ele>346.21</ele>
        <time>2019-11-20T14:28:10Z</time>
      </trkpt>
      <trkpt lat="45.63731" lon="4.71005">
        <ele>345.73</ele>
        <time>2019-11-20T14:28:25Z</time>
      </trkpt>
      <trkpt lat="45.63709" lon="4.71036">
        <ele>345.25</ele>
        <time>2019-11-20T14:28:41Z</time>
      </trkpt>
      <trkpt lat="45.63698" lon="4.71044">
        <ele>345.25</ele>
        <time>2019-11-20T14:28:47Z</time>
      </trkpt>
      <trkpt lat="45.63696" lon="4.71043">
        <ele>345.25</ele>
        <time>2019-11-20T14:28:48Z</time>
      </trkpt>
      <trkpt lat="45.63695" lon="4.71041">
        <ele>345.25</ele>
        <time>2019-11-20T14:28:49Z</time>
      </trkpt>
      <trkpt lat="45.63692" lon="4.71039">
        <ele>344.77</ele>
        <time>2019-11-20T14:28:59Z</time>
      </trkpt>
      <trkpt lat="45.6369" lon="4.71039">
        <ele>344.77</ele>
        <time>2019-11-20T14:29:48Z</time>
      </trkpt>
      <trkpt lat="45.63693" lon="4.71041">
        <ele>344.29</ele>
        <time>2019-11-20T14:30:30Z</time>
      </trkpt>
      <trkpt lat="45.63691" lon="4.71042">
        <ele>344.29</ele>
        <time>2019-11-20T14:31:02Z</time>
      </trkpt>
      <trkpt lat="45.63691" lon="4.71041">
        <ele>344.29</ele>
        <time>2019-11-20T14:31:40Z</time>
      </trkpt>
      <trkpt lat="45.63691" lon="4.71039">
        <ele>344.77</ele>
        <time>2019-11-20T14:31:55Z</time>
      </trkpt>
      <trkpt lat="45.63691" lon="4.71037">
        <ele>344.77</ele>
        <time>2019-11-20T14:31:56Z</time>
      </trkpt>
      <trkpt lat="45.6369" lon="4.71035">
        <ele>344.77</ele>
        <time>2019-11-20T14:31:57Z</time>
      </trkpt>
      <trkpt lat="45.6369" lon="4.71032">
        <ele>344.29</ele>
        <time>2019-11-20T14:31:58Z</time>
      </trkpt>
      <trkpt lat="45.6369" lon="4.71028">
        <ele>344.29</ele>
        <time>2019-11-20T14:31:59Z</time>
      </trkpt>
      <trkpt lat="45.63691" lon="4.71023">
        <ele>344.77</ele>
        <time>2019-11-20T14:32:00Z</time>
      </trkpt>
      <trkpt lat="45.63686" lon="4.70938">
        <ele>344.77</ele>
        <time>2019-11-20T14:32:17Z</time>
      </trkpt>
      <trkpt lat="45.63671" lon="4.70856">
        <ele>344.29</ele>
        <time>2019-11-20T14:32:35Z</time>
      </trkpt>
      <trkpt lat="45.63653" lon="4.70771">
        <ele>343.33</ele>
        <time>2019-11-20T14:32:52Z</time>
      </trkpt>
      <trkpt lat="45.63638" lon="4.70699">
        <ele>342.37</ele>
        <time>2019-11-20T14:33:06Z</time>
      </trkpt>
      <trkpt lat="45.63627" lon="4.70654">
        <ele>341.89</ele>
        <time>2019-11-20T14:33:18Z</time>
      </trkpt>
      <trkpt lat="45.63623" lon="4.70645">
        <ele>341.89</ele>
        <time>2019-11-20T14:33:23Z</time>
      </trkpt>
      <trkpt lat="45.63627" lon="4.70652">
        <ele>341.89</ele>
        <time>2019-11-20T14:33:26Z</time>
      </trkpt>
      <trkpt lat="45.63633" lon="4.70681">
        <ele>341.89</ele>
        <time>2019-11-20T14:33:36Z</time>
      </trkpt>
      <trkpt lat="45.63633" lon="4.7068">
        <ele>342.37</ele>
        <time>2019-11-20T14:33:54Z</time>
      </trkpt>
      <trkpt lat="45.63631" lon="4.7068">
        <ele>342.37</ele>
        <time>2019-11-20T14:34:33Z</time>
      </trkpt>
      <trkpt lat="45.6363" lon="4.70682">
        <ele>342.37</ele>
        <time>2019-11-20T14:35:08Z</time>
      </trkpt>
      <trkpt lat="45.63631" lon="4.70681">
        <ele>342.37</ele>
        <time>2019-11-20T14:35:30Z</time>
      </trkpt>
      <trkpt lat="45.63632" lon="4.70679">
        <ele>342.37</ele>
        <time>2019-11-20T14:35:52Z</time>
      </trkpt>
      <trkpt lat="45.63635" lon="4.70678">
        <ele>342.85</ele>
        <time>2019-11-20T14:36:17Z</time>
      </trkpt>
      <trkpt lat="45.63631" lon="4.70657">
        <ele>342.85</ele>
        <time>2019-11-20T14:36:25Z</time>
      </trkpt>
      <trkpt lat="45.63611" lon="4.70596">
        <ele>342.85</ele>
        <time>2019-11-20T14:36:39Z</time>
      </trkpt>
      <trkpt lat="45.63587" lon="4.70532">
        <ele>343.33</ele>
        <time>2019-11-20T14:36:54Z</time>
      </trkpt>
      <trkpt lat="45.63569" lon="4.70469">
        <ele>343.81</ele>
        <time>2019-11-20T14:37:08Z</time>
      </trkpt>
      <trkpt lat="45.63552" lon="4.70399">
        <ele>344.29</ele>
        <time>2019-11-20T14:37:22Z</time>
      </trkpt>
      <trkpt lat="45.63537" lon="4.70285">
        <ele>346.21</ele>
        <time>2019-11-20T14:37:44Z</time>
      </trkpt>
      <trkpt lat="45.63529" lon="4.70222">
        <ele>347.17</ele>
        <time>2019-11-20T14:37:57Z</time>
      </trkpt>
      <trkpt lat="45.6353" lon="4.70218">
        <ele>347.17</ele>
        <time>2019-11-20T14:37:59Z</time>
      </trkpt>
      <trkpt lat="45.6353" lon="4.70215">
        <ele>347.17</ele>
        <time>2019-11-20T14:38:00Z</time>
      </trkpt>
      <trkpt lat="45.63529" lon="4.70212">
        <ele>347.17</ele>
        <time>2019-11-20T14:38:01Z</time>
      </trkpt>
      <trkpt lat="45.63521" lon="4.70139">
        <ele>348.13</ele>
        <time>2019-11-20T14:38:16Z</time>
      </trkpt>
      <trkpt lat="45.63507" lon="4.70081">
        <ele>348.62</ele>
        <time>2019-11-20T14:38:27Z</time>
      </trkpt>
      <trkpt lat="45.63506" lon="4.70076">
        <ele>348.62</ele>
        <time>2019-11-20T14:38:28Z</time>
      </trkpt>
      <trkpt lat="45.63471" lon="4.69967">
        <ele>350.06</ele>
        <time>2019-11-20T14:38:49Z</time>
      </trkpt>
      <trkpt lat="45.63463" lon="4.69872">
        <ele>351.5</ele>
        <time>2019-11-20T14:39:05Z</time>
      </trkpt>
      <trkpt lat="45.63458" lon="4.69819">
        <ele>351.98</ele>
        <time>2019-11-20T14:39:14Z</time>
      </trkpt>
      <trkpt lat="45.63458" lon="4.69813">
        <ele>351.98</ele>
        <time>2019-11-20T14:39:15Z</time>
      </trkpt>
      <trkpt lat="45.63447" lon="4.69705">
        <ele>353.9</ele>
        <time>2019-11-20T14:39:34Z</time>
      </trkpt>
      <trkpt lat="45.63443" lon="4.69662">
        <ele>354.38</ele>
        <time>2019-11-20T14:39:46Z</time>
      </trkpt>
      <trkpt lat="45.63444" lon="4.69664">
        <ele>354.38</ele>
        <time>2019-11-20T14:39:47Z</time>
      </trkpt>
      <trkpt lat="45.63445" lon="4.69666">
        <ele>354.86</ele>
        <time>2019-11-20T14:39:48Z</time>
      </trkpt>
      <trkpt lat="45.63446" lon="4.69667">
        <ele>354.86</ele>
        <time>2019-11-20T14:39:49Z</time>
      </trkpt>
      <trkpt lat="45.63447" lon="4.69669">
        <ele>354.86</ele>
        <time>2019-11-20T14:39:50Z</time>
      </trkpt>
      <trkpt lat="45.63448" lon="4.6967">
        <ele>354.86</ele>
        <time>2019-11-20T14:39:51Z</time>
      </trkpt>
      <trkpt lat="45.63448" lon="4.69669">
        <ele>353.9</ele>
        <time>2019-11-20T14:40:08Z</time>
      </trkpt>
      <trkpt lat="45.63449" lon="4.69679">
        <ele>353.9</ele>
        <time>2019-11-20T14:40:46Z</time>
      </trkpt>
      <trkpt lat="45.63446" lon="4.69678">
        <ele>353.9</ele>
        <time>2019-11-20T14:41:23Z</time>
      </trkpt>
      <trkpt lat="45.63445" lon="4.69671">
        <ele>354.38</ele>
        <time>2019-11-20T14:41:52Z</time>
      </trkpt>
      <trkpt lat="45.63443" lon="4.69667">
        <ele>354.38</ele>
        <time>2019-11-20T14:41:56Z</time>
      </trkpt>
      <trkpt lat="45.63441" lon="4.69666">
        <ele>354.38</ele>
        <time>2019-11-20T14:41:57Z</time>
      </trkpt>
      <trkpt lat="45.6344" lon="4.69664">
        <ele>354.38</ele>
        <time>2019-11-20T14:41:58Z</time>
      </trkpt>
      <trkpt lat="45.63439" lon="4.69661">
        <ele>354.86</ele>
        <time>2019-11-20T14:41:59Z</time>
      </trkpt>
      <trkpt lat="45.63438" lon="4.69659">
        <ele>354.38</ele>
        <time>2019-11-20T14:42:00Z</time>
      </trkpt>
      <trkpt lat="45.63437" lon="4.69655">
        <ele>354.86</ele>
        <time>2019-11-20T14:42:01Z</time>
      </trkpt>
      <trkpt lat="45.63437" lon="4.69651">
        <ele>354.86</ele>
        <time>2019-11-20T14:42:02Z</time>
      </trkpt>
      <trkpt lat="45.63436" lon="4.69647">
        <ele>354.86</ele>
        <time>2019-11-20T14:42:03Z</time>
      </trkpt>
      <trkpt lat="45.63418" lon="4.69576">
        <ele>356.31</ele>
        <time>2019-11-20T14:42:19Z</time>
      </trkpt>
      <trkpt lat="45.63425" lon="4.69515">
        <ele>357.27</ele>
        <time>2019-11-20T14:42:33Z</time>
      </trkpt>
      <trkpt lat="45.63425" lon="4.69513">
        <ele>357.27</ele>
        <time>2019-11-20T14:42:53Z</time>
      </trkpt>
      <trkpt lat="45.63426" lon="4.6951">
        <ele>357.27</ele>
        <time>2019-11-20T14:43:10Z</time>
      </trkpt>
      <trkpt lat="45.63426" lon="4.69508">
        <ele>357.27</ele>
        <time>2019-11-20T14:43:11Z</time>
      </trkpt>
      <trkpt lat="45.63426" lon="4.69505">
        <ele>357.27</ele>
        <time>2019-11-20T14:43:12Z</time>
      </trkpt>
      <trkpt lat="45.63426" lon="4.69502">
        <ele>357.27</ele>
        <time>2019-11-20T14:43:13Z</time>
      </trkpt>
      <trkpt lat="45.63426" lon="4.69498">
        <ele>357.27</ele>
        <time>2019-11-20T14:43:14Z</time>
      </trkpt>
      <trkpt lat="45.63425" lon="4.69494">
        <ele>357.27</ele>
        <time>2019-11-20T14:43:15Z</time>
      </trkpt>
      <trkpt lat="45.63416" lon="4.69417">
        <ele>358.71</ele>
        <time>2019-11-20T14:43:31Z</time>
      </trkpt>
      <trkpt lat="45.63408" lon="4.69333">
        <ele>361.11</ele>
        <time>2019-11-20T14:43:49Z</time>
      </trkpt>
      <trkpt lat="45.63401" lon="4.69286">
        <ele>363.04</ele>
        <time>2019-11-20T14:44:03Z</time>
      </trkpt>
      <trkpt lat="45.63401" lon="4.69285">
        <ele>363.04</ele>
        <time>2019-11-20T14:44:18Z</time>
      </trkpt>
      <trkpt lat="45.634" lon="4.69279">
        <ele>363.04</ele>
        <time>2019-11-20T14:44:21Z</time>
      </trkpt>
      <trkpt lat="45.634" lon="4.69276">
        <ele>363.52</ele>
        <time>2019-11-20T14:44:22Z</time>
      </trkpt>
      <trkpt lat="45.63395" lon="4.69212">
        <ele>364.96</ele>
        <time>2019-11-20T14:44:35Z</time>
      </trkpt>
      <trkpt lat="45.63393" lon="4.69134">
        <ele>365.92</ele>
        <time>2019-11-20T14:44:50Z</time>
      </trkpt>
      <trkpt lat="45.63396" lon="4.69098">
        <ele>364.48</ele>
        <time>2019-11-20T14:45:02Z</time>
      </trkpt>
      <trkpt lat="45.63399" lon="4.69097">
        <ele>364.48</ele>
        <time>2019-11-20T14:45:12Z</time>
      </trkpt>
      <trkpt lat="45.634" lon="4.69097">
        <ele>364.48</ele>
        <time>2019-11-20T14:45:41Z</time>
      </trkpt>
      <trkpt lat="45.63401" lon="4.69096">
        <ele>364</ele>
        <time>2019-11-20T14:46:04Z</time>
      </trkpt>
      <trkpt lat="45.63401" lon="4.69096">
        <ele>364</ele>
        <time>2019-11-20T14:46:34Z</time>
      </trkpt>
      <trkpt lat="45.63401" lon="4.69096">
        <ele>364</ele>
        <time>2019-11-20T14:46:58Z</time>
      </trkpt>
      <trkpt lat="45.63402" lon="4.69097">
        <ele>364</ele>
        <time>2019-11-20T14:47:22Z</time>
      </trkpt>
      <trkpt lat="45.63403" lon="4.69096">
        <ele>364.48</ele>
        <time>2019-11-20T14:47:41Z</time>
      </trkpt>
      <trkpt lat="45.63404" lon="4.69096">
        <ele>364</ele>
        <time>2019-11-20T14:48:02Z</time>
      </trkpt>
      <trkpt lat="45.63401" lon="4.69097">
        <ele>364.48</ele>
        <time>2019-11-20T14:48:30Z</time>
      </trkpt>
      <trkpt lat="45.63401" lon="4.69096">
        <ele>364</ele>
        <time>2019-11-20T14:48:57Z</time>
      </trkpt>
      <trkpt lat="45.63401" lon="4.69096">
        <ele>364.48</ele>
        <time>2019-11-20T14:49:22Z</time>
      </trkpt>
      <trkpt lat="45.63397" lon="4.69094">
        <ele>364.48</ele>
        <time>2019-11-20T14:49:31Z</time>
      </trkpt>
      <trkpt lat="45.63396" lon="4.69093">
        <ele>364.48</ele>
        <time>2019-11-20T14:49:41Z</time>
      </trkpt>
      <trkpt lat="45.63396" lon="4.69089">
        <ele>364.48</ele>
        <time>2019-11-20T14:49:42Z</time>
      </trkpt>
      <trkpt lat="45.63387" lon="4.69036">
        <ele>365.92</ele>
        <time>2019-11-20T14:49:56Z</time>
      </trkpt>
      <trkpt lat="45.63362" lon="4.68966">
        <ele>367.36</ele>
        <time>2019-11-20T14:50:13Z</time>
      </trkpt>
      <trkpt lat="45.63329" lon="4.68891">
        <ele>366.88</ele>
        <time>2019-11-20T14:50:26Z</time>
      </trkpt>
      <trkpt lat="45.63282" lon="4.68759">
        <ele>365.44</ele>
        <time>2019-11-20T14:50:44Z</time>
      </trkpt>
      <trkpt lat="45.63266" lon="4.68635">
        <ele>363.52</ele>
        <time>2019-11-20T14:50:59Z</time>
      </trkpt>
      <trkpt lat="45.63266" lon="4.68607">
        <ele>363.52</ele>
        <time>2019-11-20T14:51:03Z</time>
      </trkpt>
      <trkpt lat="45.63273" lon="4.68543">
        <ele>364.96</ele>
        <time>2019-11-20T14:51:15Z</time>
      </trkpt>
      <trkpt lat="45.63278" lon="4.68456">
        <ele>366.4</ele>
        <time>2019-11-20T14:51:31Z</time>
      </trkpt>
      <trkpt lat="45.63283" lon="4.68382">
        <ele>368.32</ele>
        <time>2019-11-20T14:51:45Z</time>
      </trkpt>
      <trkpt lat="45.63289" lon="4.68322">
        <ele>370.24</ele>
        <time>2019-11-20T14:51:58Z</time>
      </trkpt>
      <trkpt lat="45.63289" lon="4.68264">
        <ele>372.65</ele>
        <time>2019-11-20T14:52:12Z</time>
      </trkpt>
      <trkpt lat="45.63284" lon="4.68209">
        <ele>374.57</ele>
        <time>2019-11-20T14:52:26Z</time>
      </trkpt>
      <trkpt lat="45.63279" lon="4.68152">
        <ele>376.97</ele>
        <time>2019-11-20T14:52:41Z</time>
      </trkpt>
      <trkpt lat="45.63269" lon="4.68087">
        <ele>379.38</ele>
        <time>2019-11-20T14:52:58Z</time>
      </trkpt>
      <trkpt lat="45.63255" lon="4.68022">
        <ele>380.82</ele>
        <time>2019-11-20T14:53:14Z</time>
      </trkpt>
      <trkpt lat="45.63236" lon="4.6795">
        <ele>381.78</ele>
        <time>2019-11-20T14:53:31Z</time>
      </trkpt>
      <trkpt lat="45.63215" lon="4.67896">
        <ele>381.78</ele>
        <time>2019-11-20T14:53:44Z</time>
      </trkpt>
      <trkpt lat="45.63191" lon="4.6784">
        <ele>381.3</ele>
        <time>2019-11-20T14:53:55Z</time>
      </trkpt>
      <trkpt lat="45.63183" lon="4.67814">
        <ele>379.86</ele>
        <time>2019-11-20T14:53:59Z</time>
      </trkpt>
      <trkpt lat="45.63171" lon="4.67766">
        <ele>378.9</ele>
        <time>2019-11-20T14:54:06Z</time>
      </trkpt>
      <trkpt lat="45.6317" lon="4.67759">
        <ele>378.9</ele>
        <time>2019-11-20T14:54:07Z</time>
      </trkpt>
      <trkpt lat="45.63168" lon="4.67754">
        <ele>378.42</ele>
        <time>2019-11-20T14:54:08Z</time>
      </trkpt>
      <trkpt lat="45.63164" lon="4.67751">
        <ele>378.42</ele>
        <time>2019-11-20T14:54:09Z</time>
      </trkpt>
      <trkpt lat="45.63159" lon="4.6775">
        <ele>377.94</ele>
        <time>2019-11-20T14:54:10Z</time>
      </trkpt>
      <trkpt lat="45.63153" lon="4.6775">
        <ele>377.45</ele>
        <time>2019-11-20T14:54:11Z</time>
      </trkpt>
      <trkpt lat="45.63107" lon="4.6775">
        <ele>373.61</ele>
        <time>2019-11-20T14:54:17Z</time>
      </trkpt>
      <trkpt lat="45.63062" lon="4.67751">
        <ele>371.21</ele>
        <time>2019-11-20T14:54:22Z</time>
      </trkpt>
      <trkpt lat="45.63035" lon="4.67752">
        <ele>369.76</ele>
        <time>2019-11-20T14:54:26Z</time>
      </trkpt>
      <trkpt lat="45.63027" lon="4.67753">
        <ele>369.28</ele>
        <time>2019-11-20T14:54:33Z</time>
      </trkpt>
      <trkpt lat="45.63022" lon="4.67753">
        <ele>369.28</ele>
        <time>2019-11-20T14:55:05Z</time>
      </trkpt>
      <trkpt lat="45.62997" lon="4.67752">
        <ele>367.36</ele>
        <time>2019-11-20T14:55:15Z</time>
      </trkpt>
      <trkpt lat="45.62981" lon="4.67755">
        <ele>365.92</ele>
        <time>2019-11-20T14:55:22Z</time>
      </trkpt>
      <trkpt lat="45.62978" lon="4.67757">
        <ele>365.92</ele>
        <time>2019-11-20T14:55:23Z</time>
      </trkpt>
      <trkpt lat="45.62975" lon="4.67759">
        <ele>365.44</ele>
        <time>2019-11-20T14:55:24Z</time>
      </trkpt>
      <trkpt lat="45.62971" lon="4.67759">
        <ele>365.44</ele>
        <time>2019-11-20T14:55:25Z</time>
      </trkpt>
      <trkpt lat="45.62966" lon="4.6776">
        <ele>364.96</ele>
        <time>2019-11-20T14:55:26Z</time>
      </trkpt>
      <trkpt lat="45.62961" lon="4.6776">
        <ele>364.48</ele>
        <time>2019-11-20T14:55:27Z</time>
      </trkpt>
      <trkpt lat="45.62956" lon="4.67761">
        <ele>363.52</ele>
        <time>2019-11-20T14:55:28Z</time>
      </trkpt>
      <trkpt lat="45.62943" lon="4.67766">
        <ele>360.15</ele>
        <time>2019-11-20T14:55:32Z</time>
      </trkpt>
      <trkpt lat="45.62935" lon="4.67769">
        <ele>358.23</ele>
        <time>2019-11-20T14:55:41Z</time>
      </trkpt>
      <trkpt lat="45.62932" lon="4.67768">
        <ele>357.75</ele>
        <time>2019-11-20T14:56:11Z</time>
      </trkpt>
      <trkpt lat="45.62932" lon="4.67771">
        <ele>357.75</ele>
        <time>2019-11-20T14:56:49Z</time>
      </trkpt>
      <trkpt lat="45.62931" lon="4.67772">
        <ele>358.23</ele>
        <time>2019-11-20T14:57:25Z</time>
      </trkpt>
      <trkpt lat="45.62932" lon="4.67775">
        <ele>358.23</ele>
        <time>2019-11-20T14:58:02Z</time>
      </trkpt>
      <trkpt lat="45.62929" lon="4.67778">
        <ele>357.75</ele>
        <time>2019-11-20T14:58:16Z</time>
      </trkpt>
      <trkpt lat="45.62913" lon="4.67778">
        <ele>355.34</ele>
        <time>2019-11-20T14:58:22Z</time>
      </trkpt>
      <trkpt lat="45.62889" lon="4.67764">
        <ele>351.98</ele>
        <time>2019-11-20T14:58:31Z</time>
      </trkpt>
      <trkpt lat="45.62885" lon="4.67758">
        <ele>351.02</ele>
        <time>2019-11-20T14:58:33Z</time>
      </trkpt>
      <trkpt lat="45.62883" lon="4.67758">
        <ele>351.02</ele>
        <time>2019-11-20T14:58:43Z</time>
      </trkpt>
      <trkpt lat="45.6288" lon="4.67761">
        <ele>350.54</ele>
        <time>2019-11-20T14:59:04Z</time>
      </trkpt>
      <trkpt lat="45.62878" lon="4.6776">
        <ele>350.54</ele>
        <time>2019-11-20T14:59:31Z</time>
      </trkpt>
      <trkpt lat="45.62875" lon="4.67761">
        <ele>351.02</ele>
        <time>2019-11-20T15:00:11Z</time>
      </trkpt>
      <trkpt lat="45.62874" lon="4.67762">
        <ele>351.02</ele>
        <time>2019-11-20T15:00:43Z</time>
      </trkpt>
      <trkpt lat="45.62869" lon="4.67754">
        <ele>351.5</ele>
        <time>2019-11-20T15:01:13Z</time>
      </trkpt>
      <trkpt lat="45.62874" lon="4.67761">
        <ele>351.5</ele>
        <time>2019-11-20T15:01:45Z</time>
      </trkpt>
      <trkpt lat="45.62871" lon="4.67754">
        <ele>351.5</ele>
        <time>2019-11-20T15:02:14Z</time>
      </trkpt>
      <trkpt lat="45.62872" lon="4.67759">
        <ele>351.98</ele>
        <time>2019-11-20T15:02:41Z</time>
      </trkpt>
      <trkpt lat="45.62874" lon="4.67763">
        <ele>351.98</ele>
        <time>2019-11-20T15:03:08Z</time>
      </trkpt>
      <trkpt lat="45.62866" lon="4.6776">
        <ele>351.98</ele>
        <time>2019-11-20T15:03:45Z</time>
      </trkpt>
      <trkpt lat="45.62867" lon="4.67757">
        <ele>352.46</ele>
        <time>2019-11-20T15:04:18Z</time>
      </trkpt>
      <trkpt lat="45.62867" lon="4.67758">
        <ele>352.94</ele>
        <time>2019-11-20T15:04:50Z</time>
      </trkpt>
      <trkpt lat="45.62875" lon="4.67765">
        <ele>353.42</ele>
        <time>2019-11-20T15:05:24Z</time>
      </trkpt>
      <trkpt lat="45.62871" lon="4.67764">
        <ele>353.9</ele>
        <time>2019-11-20T15:06:02Z</time>
      </trkpt>
      <trkpt lat="45.6287" lon="4.67763">
        <ele>353.9</ele>
        <time>2019-11-20T15:06:35Z</time>
      </trkpt>
      <trkpt lat="45.62865" lon="4.67758">
        <ele>353.9</ele>
        <time>2019-11-20T15:07:10Z</time>
      </trkpt>
      <trkpt lat="45.62875" lon="4.67771">
        <ele>354.38</ele>
        <time>2019-11-20T15:07:39Z</time>
      </trkpt>
      <trkpt lat="45.62877" lon="4.67769">
        <ele>354.86</ele>
        <time>2019-11-20T15:08:28Z</time>
      </trkpt>
      <trkpt lat="45.62879" lon="4.67772">
        <ele>355.34</ele>
        <time>2019-11-20T15:09:00Z</time>
      </trkpt>
      <trkpt lat="45.62874" lon="4.67765">
        <ele>355.83</ele>
        <time>2019-11-20T15:09:32Z</time>
      </trkpt>
      <trkpt lat="45.6287" lon="4.67758">
        <ele>355.83</ele>
        <time>2019-11-20T15:10:03Z</time>
      </trkpt>
      <trkpt lat="45.62871" lon="4.67763">
        <ele>356.31</ele>
        <time>2019-11-20T15:10:31Z</time>
      </trkpt>
      <trkpt lat="45.62872" lon="4.6776">
        <ele>356.79</ele>
        <time>2019-11-20T15:10:49Z</time>
      </trkpt>
      <trkpt lat="45.62862" lon="4.67744">
        <ele>355.83</ele>
        <time>2019-11-20T15:11:00Z</time>
      </trkpt>
      <trkpt lat="45.62837" lon="4.67749">
        <ele>354.86</ele>
        <time>2019-11-20T15:11:11Z</time>
      </trkpt>
      <trkpt lat="45.62833" lon="4.6775">
        <ele>354.38</ele>
        <time>2019-11-20T15:11:14Z</time>
      </trkpt>
      <trkpt lat="45.62831" lon="4.67751">
        <ele>354.38</ele>
        <time>2019-11-20T15:11:15Z</time>
      </trkpt>
      <trkpt lat="45.6283" lon="4.67752">
        <ele>354.86</ele>
        <time>2019-11-20T15:11:16Z</time>
      </trkpt>
      <trkpt lat="45.62828" lon="4.67753">
        <ele>354.38</ele>
        <time>2019-11-20T15:11:17Z</time>
      </trkpt>
      <trkpt lat="45.62826" lon="4.67754">
        <ele>354.86</ele>
        <time>2019-11-20T15:11:18Z</time>
      </trkpt>
      <trkpt lat="45.62824" lon="4.67755">
        <ele>354.38</ele>
        <time>2019-11-20T15:11:19Z</time>
      </trkpt>
      <trkpt lat="45.62808" lon="4.6776">
        <ele>354.38</ele>
        <time>2019-11-20T15:11:30Z</time>
      </trkpt>
      <trkpt lat="45.62805" lon="4.67757">
        <ele>354.38</ele>
        <time>2019-11-20T15:12:04Z</time>
      </trkpt>
      <trkpt lat="45.62802" lon="4.67757">
        <ele>354.38</ele>
        <time>2019-11-20T15:12:38Z</time>
      </trkpt>
      <trkpt lat="45.62803" lon="4.67757">
        <ele>354.38</ele>
        <time>2019-11-20T15:13:08Z</time>
      </trkpt>
      <trkpt lat="45.62806" lon="4.67761">
        <ele>354.38</ele>
        <time>2019-11-20T15:13:46Z</time>
      </trkpt>
      <trkpt lat="45.62802" lon="4.67761">
        <ele>354.86</ele>
        <time>2019-11-20T15:14:30Z</time>
      </trkpt>
      <trkpt lat="45.62803" lon="4.67763">
        <ele>354.86</ele>
        <time>2019-11-20T15:15:08Z</time>
      </trkpt>
      <trkpt lat="45.62802" lon="4.67761">
        <ele>355.34</ele>
        <time>2019-11-20T15:15:51Z</time>
      </trkpt>
      <trkpt lat="45.62806" lon="4.67765">
        <ele>355.34</ele>
        <time>2019-11-20T15:16:21Z</time>
      </trkpt>
      <trkpt lat="45.62806" lon="4.67761">
        <ele>355.83</ele>
        <time>2019-11-20T15:16:51Z</time>
      </trkpt>
      <trkpt lat="45.62807" lon="4.67763">
        <ele>355.83</ele>
        <time>2019-11-20T15:17:32Z</time>
      </trkpt>
      <trkpt lat="45.62806" lon="4.67764">
        <ele>356.31</ele>
        <time>2019-11-20T15:18:01Z</time>
      </trkpt>
      <trkpt lat="45.62806" lon="4.67762">
        <ele>356.31</ele>
        <time>2019-11-20T15:18:32Z</time>
      </trkpt>
      <trkpt lat="45.62802" lon="4.6776">
        <ele>356.31</ele>
        <time>2019-11-20T15:19:00Z</time>
      </trkpt>
      <trkpt lat="45.62805" lon="4.67763">
        <ele>356.31</ele>
        <time>2019-11-20T15:19:30Z</time>
      </trkpt>
      <trkpt lat="45.62806" lon="4.67768">
        <ele>356.79</ele>
        <time>2019-11-20T15:20:07Z</time>
      </trkpt>
      <trkpt lat="45.62803" lon="4.67758">
        <ele>356.79</ele>
        <time>2019-11-20T15:20:45Z</time>
      </trkpt>
      <trkpt lat="45.62805" lon="4.67755">
        <ele>356.79</ele>
        <time>2019-11-20T15:21:16Z</time>
      </trkpt>
      <trkpt lat="45.62799" lon="4.67756">
        <ele>357.27</ele>
        <time>2019-11-20T15:21:43Z</time>
      </trkpt>
      <trkpt lat="45.628" lon="4.67757">
        <ele>357.27</ele>
        <time>2019-11-20T15:22:13Z</time>
      </trkpt>
      <trkpt lat="45.62803" lon="4.67759">
        <ele>357.27</ele>
        <time>2019-11-20T15:22:44Z</time>
      </trkpt>
      <trkpt lat="45.62806" lon="4.6776">
        <ele>357.27</ele>
        <time>2019-11-20T15:23:12Z</time>
      </trkpt>
      <trkpt lat="45.62807" lon="4.67763">
        <ele>357.75</ele>
        <time>2019-11-20T15:23:38Z</time>
      </trkpt>
      <trkpt lat="45.62805" lon="4.67765">
        <ele>357.75</ele>
        <time>2019-11-20T15:24:15Z</time>
      </trkpt>
      <trkpt lat="45.62806" lon="4.67759">
        <ele>358.23</ele>
        <time>2019-11-20T15:24:41Z</time>
      </trkpt>
      <trkpt lat="45.62807" lon="4.6776">
        <ele>358.23</ele>
        <time>2019-11-20T15:25:16Z</time>
      </trkpt>
      <trkpt lat="45.62805" lon="4.6776">
        <ele>358.23</ele>
        <time>2019-11-20T15:25:51Z</time>
      </trkpt>
      <trkpt lat="45.62803" lon="4.67761">
        <ele>358.23</ele>
        <time>2019-11-20T15:26:28Z</time>
      </trkpt>
      <trkpt lat="45.62805" lon="4.6776">
        <ele>358.71</ele>
        <time>2019-11-20T15:26:45Z</time>
      </trkpt>
      <trkpt lat="45.62796" lon="4.67762">
        <ele>358.71</ele>
        <time>2019-11-20T15:26:51Z</time>
      </trkpt>
      <trkpt lat="45.62794" lon="4.67761">
        <ele>358.71</ele>
        <time>2019-11-20T15:26:52Z</time>
      </trkpt>
      <trkpt lat="45.62793" lon="4.6776">
        <ele>359.19</ele>
        <time>2019-11-20T15:26:53Z</time>
      </trkpt>
      <trkpt lat="45.62791" lon="4.67759">
        <ele>359.19</ele>
        <time>2019-11-20T15:26:54Z</time>
      </trkpt>
      <trkpt lat="45.62781" lon="4.67756">
        <ele>359.67</ele>
        <time>2019-11-20T15:27:05Z</time>
      </trkpt>
      <trkpt lat="45.62771" lon="4.67751">
        <ele>360.63</ele>
        <time>2019-11-20T15:27:17Z</time>
      </trkpt>
      <trkpt lat="45.62756" lon="4.67745">
        <ele>361.59</ele>
        <time>2019-11-20T15:27:26Z</time>
      </trkpt>
      <trkpt lat="45.62755" lon="4.67745">
        <ele>361.59</ele>
        <time>2019-11-20T15:27:27Z</time>
      </trkpt>
      <trkpt lat="45.62753" lon="4.67744">
        <ele>361.11</ele>
        <time>2019-11-20T15:27:28Z</time>
      </trkpt>
      <trkpt lat="45.62751" lon="4.67744">
        <ele>361.59</ele>
        <time>2019-11-20T15:27:29Z</time>
      </trkpt>
      <trkpt lat="45.6275" lon="4.67743">
        <ele>361.59</ele>
        <time>2019-11-20T15:27:30Z</time>
      </trkpt>
      <trkpt lat="45.62748" lon="4.67744">
        <ele>362.07</ele>
        <time>2019-11-20T15:27:32Z</time>
      </trkpt>
      <trkpt lat="45.62747" lon="4.67742">
        <ele>361.59</ele>
        <time>2019-11-20T15:27:41Z</time>
      </trkpt>
      <trkpt lat="45.62748" lon="4.67742">
        <ele>361.59</ele>
        <time>2019-11-20T15:28:20Z</time>
      </trkpt>
      <trkpt lat="45.62747" lon="4.67742">
        <ele>361.59</ele>
        <time>2019-11-20T15:28:49Z</time>
      </trkpt>
      <trkpt lat="45.62746" lon="4.67742">
        <ele>361.59</ele>
        <time>2019-11-20T15:29:26Z</time>
      </trkpt>
      <trkpt lat="45.62742" lon="4.67742">
        <ele>362.07</ele>
        <time>2019-11-20T15:29:41Z</time>
      </trkpt>
      <trkpt lat="45.62741" lon="4.67741">
        <ele>362.07</ele>
        <time>2019-11-20T15:29:43Z</time>
      </trkpt>
      <trkpt lat="45.62739" lon="4.6774">
        <ele>362.07</ele>
        <time>2019-11-20T15:29:45Z</time>
      </trkpt>
      <trkpt lat="45.6272" lon="4.67739">
        <ele>363.04</ele>
        <time>2019-11-20T15:29:58Z</time>
      </trkpt>
      <trkpt lat="45.627" lon="4.67736">
        <ele>363.52</ele>
        <time>2019-11-20T15:30:08Z</time>
      </trkpt>
      <trkpt lat="45.62698" lon="4.67736">
        <ele>364</ele>
        <time>2019-11-20T15:30:09Z</time>
      </trkpt>
      <trkpt lat="45.62696" lon="4.67736">
        <ele>364</ele>
        <time>2019-11-20T15:30:10Z</time>
      </trkpt>
      <trkpt lat="45.62693" lon="4.67736">
        <ele>364</ele>
        <time>2019-11-20T15:30:11Z</time>
      </trkpt>
      <trkpt lat="45.62691" lon="4.67736">
        <ele>364</ele>
        <time>2019-11-20T15:30:12Z</time>
      </trkpt>
      <trkpt lat="45.62678" lon="4.67736">
        <ele>364.48</ele>
        <time>2019-11-20T15:30:19Z</time>
      </trkpt>
      <trkpt lat="45.62676" lon="4.67736">
        <ele>364</ele>
        <time>2019-11-20T15:30:20Z</time>
      </trkpt>
      <trkpt lat="45.62646" lon="4.67732">
        <ele>364.96</ele>
        <time>2019-11-20T15:30:35Z</time>
      </trkpt>
      <trkpt lat="45.62622" lon="4.67731">
        <ele>364.96</ele>
        <time>2019-11-20T15:30:47Z</time>
      </trkpt>
      <trkpt lat="45.62593" lon="4.67732">
        <ele>365.92</ele>
        <time>2019-11-20T15:31:02Z</time>
      </trkpt>
      <trkpt lat="45.62585" lon="4.67736">
        <ele>366.4</ele>
        <time>2019-11-20T15:31:13Z</time>
      </trkpt>
      <trkpt lat="45.62582" lon="4.6773">
        <ele>366.4</ele>
        <time>2019-11-20T15:31:18Z</time>
      </trkpt>
      <trkpt lat="45.6258" lon="4.67728">
        <ele>366.4</ele>
        <time>2019-11-20T15:31:31Z</time>
      </trkpt>
      <trkpt lat="45.62583" lon="4.6773">
        <ele>365.92</ele>
        <time>2019-11-20T15:32:15Z</time>
      </trkpt>
      <trkpt lat="45.62581" lon="4.67733">
        <ele>365.92</ele>
        <time>2019-11-20T15:33:00Z</time>
      </trkpt>
      <trkpt lat="45.6258" lon="4.67732">
        <ele>365.92</ele>
        <time>2019-11-20T15:33:43Z</time>
      </trkpt>
      <trkpt lat="45.62578" lon="4.67734">
        <ele>365.92</ele>
        <time>2019-11-20T15:34:21Z</time>
      </trkpt>
      <trkpt lat="45.62582" lon="4.67734">
        <ele>365.92</ele>
        <time>2019-11-20T15:35:02Z</time>
      </trkpt>
      <trkpt lat="45.62581" lon="4.67733">
        <ele>365.92</ele>
        <time>2019-11-20T15:35:32Z</time>
      </trkpt>
      <trkpt lat="45.6258" lon="4.67732">
        <ele>365.92</ele>
        <time>2019-11-20T15:36:06Z</time>
      </trkpt>
      <trkpt lat="45.6258" lon="4.67731">
        <ele>365.92</ele>
        <time>2019-11-20T15:36:43Z</time>
      </trkpt>
      <trkpt lat="45.62577" lon="4.67728">
        <ele>365.92</ele>
        <time>2019-11-20T15:37:20Z</time>
      </trkpt>
      <trkpt lat="45.62579" lon="4.67727">
        <ele>365.92</ele>
        <time>2019-11-20T15:37:55Z</time>
      </trkpt>
      <trkpt lat="45.62579" lon="4.6773">
        <ele>365.44</ele>
        <time>2019-11-20T15:38:35Z</time>
      </trkpt>
      <trkpt lat="45.62579" lon="4.67727">
        <ele>365.44</ele>
        <time>2019-11-20T15:39:11Z</time>
      </trkpt>
      <trkpt lat="45.6258" lon="4.67727">
        <ele>365.44</ele>
        <time>2019-11-20T15:39:43Z</time>
      </trkpt>
      <trkpt lat="45.62579" lon="4.67731">
        <ele>365.44</ele>
        <time>2019-11-20T15:40:12Z</time>
      </trkpt>
      <trkpt lat="45.62577" lon="4.67731">
        <ele>365.92</ele>
        <time>2019-11-20T15:40:43Z</time>
      </trkpt>
      <trkpt lat="45.6258" lon="4.67731">
        <ele>365.92</ele>
        <time>2019-11-20T15:41:20Z</time>
      </trkpt>
      <trkpt lat="45.6258" lon="4.67731">
        <ele>366.4</ele>
        <time>2019-11-20T15:41:47Z</time>
      </trkpt>
      <trkpt lat="45.62577" lon="4.67734">
        <ele>366.4</ele>
        <time>2019-11-20T15:41:50Z</time>
      </trkpt>
      <trkpt lat="45.62543" lon="4.67733">
        <ele>367.84</ele>
        <time>2019-11-20T15:42:05Z</time>
      </trkpt>
      <trkpt lat="45.62484" lon="4.6774">
        <ele>369.28</ele>
        <time>2019-11-20T15:42:27Z</time>
      </trkpt>
      <trkpt lat="45.62435" lon="4.67747">
        <ele>370.24</ele>
        <time>2019-11-20T15:42:45Z</time>
      </trkpt>
      <trkpt lat="45.62411" lon="4.67752">
        <ele>370.73</ele>
        <time>2019-11-20T15:42:57Z</time>
      </trkpt>
      <trkpt lat="45.62391" lon="4.67744">
        <ele>371.21</ele>
        <time>2019-11-20T15:43:09Z</time>
      </trkpt>
      <trkpt lat="45.62391" lon="4.67742">
        <ele>371.21</ele>
        <time>2019-11-20T15:43:10Z</time>
      </trkpt>
      <trkpt lat="45.62392" lon="4.67741">
        <ele>371.21</ele>
        <time>2019-11-20T15:43:13Z</time>
      </trkpt>
      <trkpt lat="45.62399" lon="4.67747">
        <ele>371.21</ele>
        <time>2019-11-20T15:43:18Z</time>
      </trkpt>
      <trkpt lat="45.624" lon="4.67754">
        <ele>370.73</ele>
        <time>2019-11-20T15:43:27Z</time>
      </trkpt>
      <trkpt lat="45.62401" lon="4.67754">
        <ele>370.73</ele>
        <time>2019-11-20T15:44:07Z</time>
      </trkpt>
      <trkpt lat="45.62401" lon="4.67755">
        <ele>370.73</ele>
        <time>2019-11-20T15:44:37Z</time>
      </trkpt>
      <trkpt lat="45.62402" lon="4.67754">
        <ele>370.73</ele>
        <time>2019-11-20T15:45:06Z</time>
      </trkpt>
      <trkpt lat="45.62401" lon="4.67754">
        <ele>370.73</ele>
        <time>2019-11-20T15:45:35Z</time>
      </trkpt>
      <trkpt lat="45.62401" lon="4.67749">
        <ele>370.73</ele>
        <time>2019-11-20T15:45:44Z</time>
      </trkpt>
      <trkpt lat="45.62401" lon="4.67746">
        <ele>370.73</ele>
        <time>2019-11-20T15:45:46Z</time>
      </trkpt>
      <trkpt lat="45.62397" lon="4.67743">
        <ele>370.73</ele>
        <time>2019-11-20T15:45:49Z</time>
      </trkpt>
      <trkpt lat="45.62394" lon="4.67742">
        <ele>370.73</ele>
        <time>2019-11-20T15:45:50Z</time>
      </trkpt>
      <trkpt lat="45.62392" lon="4.67741">
        <ele>370.73</ele>
        <time>2019-11-20T15:45:51Z</time>
      </trkpt>
      <trkpt lat="45.62342" lon="4.67716">
        <ele>371.69</ele>
        <time>2019-11-20T15:46:07Z</time>
      </trkpt>
      <trkpt lat="45.62313" lon="4.67669">
        <ele>372.65</ele>
        <time>2019-11-20T15:46:23Z</time>
      </trkpt>
      <trkpt lat="45.62281" lon="4.67653">
        <ele>374.09</ele>
        <time>2019-11-20T15:46:35Z</time>
      </trkpt>
      <trkpt lat="45.62246" lon="4.6764">
        <ele>375.05</ele>
        <time>2019-11-20T15:46:48Z</time>
      </trkpt>
      <trkpt lat="45.62214" lon="4.67622">
        <ele>376.49</ele>
        <time>2019-11-20T15:46:59Z</time>
      </trkpt>
      <trkpt lat="45.6217" lon="4.67585">
        <ele>378.9</ele>
        <time>2019-11-20T15:47:16Z</time>
      </trkpt>
      <trkpt lat="45.62146" lon="4.67581">
        <ele>379.86</ele>
        <time>2019-11-20T15:47:25Z</time>
      </trkpt>
      <trkpt lat="45.62146" lon="4.67578">
        <ele>379.86</ele>
        <time>2019-11-20T15:47:36Z</time>
      </trkpt>
      <trkpt lat="45.62146" lon="4.67578">
        <ele>379.86</ele>
        <time>2019-11-20T15:48:08Z</time>
      </trkpt>
      <trkpt lat="45.62134" lon="4.67572">
        <ele>380.34</ele>
        <time>2019-11-20T15:48:25Z</time>
      </trkpt>
      <trkpt lat="45.62087" lon="4.67554">
        <ele>381.78</ele>
        <time>2019-11-20T15:48:40Z</time>
      </trkpt>
      <trkpt lat="45.62052" lon="4.67536">
        <ele>383.22</ele>
        <time>2019-11-20T15:48:55Z</time>
      </trkpt>
      <trkpt lat="45.6205" lon="4.67534">
        <ele>383.22</ele>
        <time>2019-11-20T15:48:58Z</time>
      </trkpt>
      <trkpt lat="45.6205" lon="4.67533">
        <ele>383.22</ele>
        <time>2019-11-20T15:48:59Z</time>
      </trkpt>
      <trkpt lat="45.6205" lon="4.67531">
        <ele>383.22</ele>
        <time>2019-11-20T15:49:00Z</time>
      </trkpt>
      <trkpt lat="45.62051" lon="4.6753">
        <ele>383.22</ele>
        <time>2019-11-20T15:49:01Z</time>
      </trkpt>
      <trkpt lat="45.62052" lon="4.6753">
        <ele>383.22</ele>
        <time>2019-11-20T15:49:13Z</time>
      </trkpt>
      <trkpt lat="45.62053" lon="4.67529">
        <ele>383.22</ele>
        <time>2019-11-20T15:49:46Z</time>
      </trkpt>
      <trkpt lat="45.62053" lon="4.67529">
        <ele>383.22</ele>
        <time>2019-11-20T15:49:47Z</time>
      </trkpt>
      <trkpt lat="45.62053" lon="4.67524">
        <ele>383.22</ele>
        <time>2019-11-20T15:49:50Z</time>
      </trkpt>
      <trkpt lat="45.62053" lon="4.67521">
        <ele>383.22</ele>
        <time>2019-11-20T15:49:51Z</time>
      </trkpt>
      <trkpt lat="45.62052" lon="4.67463">
        <ele>384.18</ele>
        <time>2019-11-20T15:50:06Z</time>
      </trkpt>
      <trkpt lat="45.62072" lon="4.67453">
        <ele>384.18</ele>
        <time>2019-11-20T15:50:13Z</time>
      </trkpt>
      <trkpt lat="45.62105" lon="4.67449">
        <ele>384.18</ele>
        <time>2019-11-20T15:50:25Z</time>
      </trkpt>
      <trkpt lat="45.62113" lon="4.67439">
        <ele>384.18</ele>
        <time>2019-11-20T15:50:35Z</time>
      </trkpt>
      <trkpt lat="45.62113" lon="4.67437">
        <ele>384.18</ele>
        <time>2019-11-20T15:51:16Z</time>
      </trkpt>
      <trkpt lat="45.62114" lon="4.67436">
        <ele>384.18</ele>
        <time>2019-11-20T15:51:27Z</time>
      </trkpt>
      <trkpt lat="45.62115" lon="4.67435">
        <ele>383.7</ele>
        <time>2019-11-20T15:51:28Z</time>
      </trkpt>
      <trkpt lat="45.62116" lon="4.67433">
        <ele>383.7</ele>
        <time>2019-11-20T15:51:29Z</time>
      </trkpt>
      <trkpt lat="45.62121" lon="4.67413">
        <ele>383.7</ele>
        <time>2019-11-20T15:51:36Z</time>
      </trkpt>
      <trkpt lat="45.62119" lon="4.6741">
        <ele>383.7</ele>
        <time>2019-11-20T15:51:37Z</time>
      </trkpt>
      <trkpt lat="45.62117" lon="4.67409">
        <ele>383.7</ele>
        <time>2019-11-20T15:51:38Z</time>
      </trkpt>
      <trkpt lat="45.62115" lon="4.67407">
        <ele>383.7</ele>
        <time>2019-11-20T15:51:39Z</time>
      </trkpt>
      <trkpt lat="45.62113" lon="4.67405">
        <ele>384.66</ele>
        <time>2019-11-20T15:51:40Z</time>
      </trkpt>
      <trkpt lat="45.62086" lon="4.6737">
        <ele>383.22</ele>
        <time>2019-11-20T15:51:53Z</time>
      </trkpt>
      <trkpt lat="45.62086" lon="4.67367">
        <ele>383.22</ele>
        <time>2019-11-20T15:51:54Z</time>
      </trkpt>
      <trkpt lat="45.62086" lon="4.67365">
        <ele>382.74</ele>
        <time>2019-11-20T15:51:55Z</time>
      </trkpt>
      <trkpt lat="45.62087" lon="4.67362">
        <ele>382.74</ele>
        <time>2019-11-20T15:51:56Z</time>
      </trkpt>
      <trkpt lat="45.62088" lon="4.67359">
        <ele>382.74</ele>
        <time>2019-11-20T15:51:57Z</time>
      </trkpt>
      <trkpt lat="45.62088" lon="4.67356">
        <ele>382.74</ele>
        <time>2019-11-20T15:51:58Z</time>
      </trkpt>
      <trkpt lat="45.62087" lon="4.67354">
        <ele>382.74</ele>
        <time>2019-11-20T15:51:59Z</time>
      </trkpt>
      <trkpt lat="45.62086" lon="4.67352">
        <ele>382.74</ele>
        <time>2019-11-20T15:52:00Z</time>
      </trkpt>
      <trkpt lat="45.62085" lon="4.67349">
        <ele>382.74</ele>
        <time>2019-11-20T15:52:01Z</time>
      </trkpt>
      <trkpt lat="45.62083" lon="4.67347">
        <ele>382.74</ele>
        <time>2019-11-20T15:52:02Z</time>
      </trkpt>
      <trkpt lat="45.62081" lon="4.67345">
        <ele>382.74</ele>
        <time>2019-11-20T15:52:03Z</time>
      </trkpt>
      <trkpt lat="45.6208" lon="4.67343">
        <ele>382.74</ele>
        <time>2019-11-20T15:52:04Z</time>
      </trkpt>
    </trkseg>
  </trk>
</gpx>